Time,TemperatureF,DewpointF,PressureIn,WindDirection,WindDirectionDegrees,WindSpeedMPH,WindSpeedGustMPH,Humidity,HourlyPrecipIn,Conditions,Clouds,dailyrainin,SoftwareType,DateUTC
2013-07-18 00:00:00,77.1,73.3,30.14,SE,137,0.0,0.0,88,0.00,,,0.00,VWS V14.01,2013-07-18 05:00:00,
2013-07-18 00:01:00,77.1,73.3,30.14,SE,137,0.0,0.0,88,0.00,,CLR,0.00,VWS V14.01,2013-07-18 05:01:00,
2013-07-18 00:02:00,77.1,73.3,30.14,SE,137,0.0,0.0,88,0.00,,CLR,0.00,VWS V14.01,2013-07-18 05:02:00,
2013-07-18 00:03:00,77.1,73.3,30.14,SE,137,0.0,0.0,88,0.00,,CLR,0.00,VWS V14.01,2013-07-18 05:03:00,
2013-07-18 00:06:00,76.9,73.1,30.14,SE,137,0.0,0.0,88,0.00,,CLR,0.00,VWS V14.01,2013-07-18 05:06:00,
2013-07-18 00:07:00,76.9,73.1,30.14,SE,137,0.0,0.0,88,0.00,,CLR,0.00,VWS V14.01,2013-07-18 05:07:00,
2013-07-18 00:08:00,77.1,73.3,30.14,SE,137,0.0,0.0,88,0.00,,CLR,0.00,VWS V14.01,2013-07-18 05:08:00,
2013-07-18 00:11:00,77.1,73.3,30.14,SE,137,0.0,0.0,88,0.00,,CLR,0.00,VWS V14.01,2013-07-18 05:11:00,
2013-07-18 00:12:00,77.1,73.3,30.14,SE,137,0.0,0.0,88,0.00,,CLR,0.00,VWS V14.01,2013-07-18 05:12:00,
2013-07-18 00:13:00,77.1,73.3,30.14,SE,137,0.0,0.0,88,0.00,,CLR,0.00,VWS V14.01,2013-07-18 05:13:00,
2013-07-18 00:16:00,77.3,73.5,30.13,SE,137,0.0,0.0,88,0.00,,CLR,0.00,VWS V14.01,2013-07-18 05:16:00,
2013-07-18 00:18:00,77.3,73.5,30.13,SE,137,0.0,0.0,88,0.00,,CLR,0.00,VWS V14.01,2013-07-18 05:18:00,
2013-07-18 00:22:00,77.3,73.5,30.13,SE,137,0.0,0.0,88,0.00,,CLR,0.00,VWS V14.01,2013-07-18 05:22:00,
2013-07-18 00:23:00,77.3,73.5,30.13,SE,137,0.0,0.0,88,0.00,,CLR,0.00,VWS V14.01,2013-07-18 05:23:00,
2013-07-18 00:24:00,77.3,73.5,30.13,SE,137,0.0,0.0,88,0.00,,CLR,0.00,VWS V14.01,2013-07-18 05:24:00,
2013-07-18 00:27:00,77.3,73.5,30.13,SE,137,0.0,0.0,88,0.00,,CLR,0.00,VWS V14.01,2013-07-18 05:27:00,
2013-07-18 00:28:00,77.3,73.5,30.13,SE,137,0.0,0.0,88,0.00,,CLR,0.00,VWS V14.01,2013-07-18 05:28:00,
2013-07-18 00:29:00,77.3,73.5,30.13,SE,137,0.0,0.0,88,0.00,,CLR,0.00,VWS V14.01,2013-07-18 05:29:00,
2013-07-18 00:30:00,77.3,73.5,30.13,SE,137,0.0,0.0,88,0.00,,,0.00,VWS V14.01,2013-07-18 05:30:00,
2013-07-18 00:32:00,77.3,73.5,30.13,SE,137,0.0,0.0,88,0.00,,CLR,0.00,VWS V14.01,2013-07-18 05:32:00,
2013-07-18 00:33:00,77.1,73.3,30.13,SE,137,0.0,0.0,88,0.00,,CLR,0.00,VWS V14.01,2013-07-18 05:33:00,
2013-07-18 00:34:00,77.1,73.3,30.13,SE,137,0.0,0.0,88,0.00,,CLR,0.00,VWS V14.01,2013-07-18 05:34:00,
2013-07-18 00:37:00,76.9,73.1,30.13,SE,137,0.0,0.0,88,0.00,,CLR,0.00,VWS V14.01,2013-07-18 05:37:00,
2013-07-18 00:38:00,76.9,73.1,30.13,SE,137,0.0,0.0,88,0.00,,CLR,0.00,VWS V14.01,2013-07-18 05:38:00,
2013-07-18 00:39:00,76.9,73.1,30.13,SE,137,0.0,0.0,88,0.00,,CLR,0.00,VWS V14.01,2013-07-18 05:39:00,
2013-07-18 00:42:00,76.7,72.9,30.13,SE,137,0.0,0.0,88,0.00,,CLR,0.00,VWS V14.01,2013-07-18 05:42:00,
2013-07-18 00:43:00,76.7,72.9,30.13,SE,137,0.0,0.0,88,0.00,,CLR,0.00,VWS V14.01,2013-07-18 05:43:00,
2013-07-18 00:44:00,76.7,72.9,30.13,SE,137,0.0,0.0,88,0.00,,CLR,0.00,VWS V14.01,2013-07-18 05:44:00,
2013-07-18 00:47:00,76.7,72.9,30.13,SE,137,0.0,0.0,88,0.00,,CLR,0.00,VWS V14.01,2013-07-18 05:47:00,
2013-07-18 00:48:00,76.6,72.8,30.13,SE,137,0.0,0.0,88,0.00,,CLR,0.00,VWS V14.01,2013-07-18 05:48:00,
2013-07-18 00:49:00,76.6,72.8,30.13,SE,137,0.0,0.0,88,0.00,,CLR,0.00,VWS V14.01,2013-07-18 05:49:00,
2013-07-18 00:52:00,76.6,73.1,30.13,SE,137,0.0,0.0,89,0.00,,CLR,0.00,VWS V14.01,2013-07-18 05:52:00,
2013-07-18 00:53:00,76.6,73.1,30.13,SE,137,0.0,0.0,89,0.00,,CLR,0.00,VWS V14.01,2013-07-18 05:53:00,
2013-07-18 00:54:00,76.6,73.1,30.13,SE,137,0.0,0.0,89,0.00,,CLR,0.00,VWS V14.01,2013-07-18 05:54:00,
2013-07-18 00:58:00,76.4,72.9,30.13,SE,137,0.0,0.0,89,0.00,,CLR,0.00,VWS V14.01,2013-07-18 05:58:00,
2013-07-18 00:59:00,76.4,72.9,30.13,SE,137,0.0,0.0,89,0.00,,CLR,0.00,VWS V14.01,2013-07-18 05:59:00,
2013-07-18 01:00:00,76.4,72.9,30.13,SE,137,0.0,0.0,89,0.00,,CLR,0.00,VWS V14.01,2013-07-18 06:00:00,
2013-07-18 01:03:00,76.4,72.9,30.13,SE,137,0.0,0.0,89,0.00,,CLR,0.00,VWS V14.01,2013-07-18 06:03:00,
2013-07-18 01:04:00,76.4,72.9,30.13,SE,137,0.0,0.0,89,0.00,,CLR,0.00,VWS V14.01,2013-07-18 06:04:00,
2013-07-18 01:05:00,76.4,72.9,30.13,SE,137,0.0,0.0,89,0.00,,CLR,0.00,VWS V14.01,2013-07-18 06:05:00,
2013-07-18 01:08:00,76.2,72.7,30.13,SE,137,0.0,0.0,89,0.00,,CLR,0.00,VWS V14.01,2013-07-18 06:08:00,
2013-07-18 01:09:00,76.2,72.7,30.13,SE,137,0.0,0.0,89,0.00,,CLR,0.00,VWS V14.01,2013-07-18 06:09:00,
2013-07-18 01:11:00,76.2,72.7,30.13,SE,137,0.0,0.0,89,0.00,,CLR,0.00,VWS V14.01,2013-07-18 06:11:00,
2013-07-18 01:13:00,76.2,73.1,30.13,SE,137,0.0,0.0,90,0.00,,CLR,0.00,VWS V14.01,2013-07-18 06:13:00,
2013-07-18 01:14:00,76.2,73.1,30.13,SE,137,0.0,0.0,90,0.00,,CLR,0.00,VWS V14.01,2013-07-18 06:14:00,
2013-07-18 01:15:00,76.2,73.1,30.13,SE,137,0.0,0.0,90,0.00,,CLR,0.00,VWS V14.01,2013-07-18 06:15:00,
2013-07-18 01:16:00,76.0,72.9,30.13,SE,137,0.0,0.0,90,0.00,,CLR,0.00,VWS V14.01,2013-07-18 06:16:00,
2013-07-18 01:18:00,76.0,72.9,30.13,SE,137,0.0,0.0,90,0.00,,CLR,0.00,VWS V14.01,2013-07-18 06:18:00,
2013-07-18 01:19:00,76.0,72.9,30.13,SE,137,0.0,0.0,90,0.00,,CLR,0.00,VWS V14.01,2013-07-18 06:19:00,
2013-07-18 01:20:00,76.0,72.9,30.13,SE,137,0.0,0.0,90,0.00,,CLR,0.00,VWS V14.01,2013-07-18 06:20:00,
2013-07-18 01:21:00,76.0,72.9,30.13,SE,137,0.0,0.0,90,0.00,,CLR,0.00,VWS V14.01,2013-07-18 06:21:00,
2013-07-18 01:23:00,76.0,72.9,30.13,SE,137,0.0,0.0,90,0.00,,CLR,0.00,VWS V14.01,2013-07-18 06:23:00,
2013-07-18 01:24:00,76.0,72.9,30.13,SE,137,0.0,0.0,90,0.00,,CLR,0.00,VWS V14.01,2013-07-18 06:24:00,
2013-07-18 01:26:00,76.0,72.9,30.13,SE,137,0.0,0.0,90,0.00,,CLR,0.00,VWS V14.01,2013-07-18 06:26:00,
2013-07-18 01:28:00,76.0,72.9,30.13,SE,137,0.0,0.0,90,0.00,,CLR,0.00,VWS V14.01,2013-07-18 06:28:00,
2013-07-18 01:29:00,76.0,72.9,30.13,SE,137,0.0,0.0,90,0.00,,CLR,0.00,VWS V14.01,2013-07-18 06:29:00,
2013-07-18 01:30:00,76.0,72.9,30.13,SE,137,0.0,0.0,90,0.00,,,0.00,VWS V14.01,2013-07-18 06:30:00,
2013-07-18 01:31:00,76.0,72.9,30.13,SE,137,0.0,0.0,90,0.00,,CLR,0.00,VWS V14.01,2013-07-18 06:31:00,
2013-07-18 01:33:00,76.0,73.2,30.13,SE,137,0.0,0.0,91,0.00,,CLR,0.00,VWS V14.01,2013-07-18 06:33:00,
2013-07-18 01:34:00,76.0,73.2,30.13,SE,137,0.0,0.0,91,0.00,,CLR,0.00,VWS V14.01,2013-07-18 06:34:00,
2013-07-18 01:36:00,76.0,73.2,30.13,SE,137,0.0,0.0,91,0.00,,CLR,0.00,VWS V14.01,2013-07-18 06:36:00,
2013-07-18 01:37:00,76.2,73.4,30.13,SE,137,0.0,0.0,91,0.00,,CLR,0.00,VWS V14.01,2013-07-18 06:37:00,
2013-07-18 01:38:00,76.0,73.2,30.13,SE,137,0.0,0.0,91,0.00,,CLR,0.00,VWS V14.01,2013-07-18 06:38:00,
2013-07-18 01:39:00,76.0,73.2,30.13,SE,137,0.0,0.0,91,0.00,,CLR,0.00,VWS V14.01,2013-07-18 06:39:00,
2013-07-18 01:41:00,76.0,73.2,30.13,SE,137,0.0,0.0,91,0.00,,CLR,0.00,VWS V14.01,2013-07-18 06:41:00,
2013-07-18 01:42:00,76.0,73.2,30.13,SE,137,0.0,0.0,91,0.00,,CLR,0.00,VWS V14.01,2013-07-18 06:42:00,
2013-07-18 01:44:00,76.0,73.2,30.13,SE,137,0.0,0.0,91,0.00,,CLR,0.00,VWS V14.01,2013-07-18 06:44:00,
2013-07-18 01:45:00,76.0,73.2,30.12,SE,137,0.0,0.0,91,0.00,,CLR,0.00,VWS V14.01,2013-07-18 06:45:00,
2013-07-18 01:46:00,76.0,73.2,30.12,SE,137,0.0,0.0,91,0.00,,CLR,0.00,VWS V14.01,2013-07-18 06:46:00,
2013-07-18 01:47:00,76.0,73.2,30.12,SE,137,0.0,0.0,91,0.00,,CLR,0.00,VWS V14.01,2013-07-18 06:47:00,
2013-07-18 01:49:00,76.2,73.4,30.12,SE,137,0.0,0.0,91,0.00,,CLR,0.00,VWS V14.01,2013-07-18 06:49:00,
2013-07-18 01:50:00,76.2,73.4,30.12,SE,137,0.0,0.0,91,0.00,,CLR,0.00,VWS V14.01,2013-07-18 06:50:00,
2013-07-18 01:52:00,76.2,73.4,30.12,SE,137,0.0,0.0,91,0.00,,CLR,0.00,VWS V14.01,2013-07-18 06:52:00,
2013-07-18 01:54:00,76.0,73.2,30.12,SE,137,0.0,0.0,91,0.00,,CLR,0.00,VWS V14.01,2013-07-18 06:54:00,
2013-07-18 01:55:00,76.0,73.2,30.12,SE,137,0.0,0.0,91,0.00,,CLR,0.00,VWS V14.01,2013-07-18 06:55:00,
2013-07-18 01:56:00,76.0,73.2,30.12,SE,137,0.0,0.0,91,0.00,,CLR,0.00,VWS V14.01,2013-07-18 06:56:00,
2013-07-18 01:57:00,76.0,73.2,30.12,SE,137,0.0,0.0,91,0.00,,CLR,0.00,VWS V14.01,2013-07-18 06:57:00,
2013-07-18 01:59:00,76.0,73.2,30.12,SE,137,0.0,0.0,91,0.00,,CLR,0.00,VWS V14.01,2013-07-18 06:59:00,
2013-07-18 02:00:00,76.0,73.2,30.12,SE,137,0.0,0.0,91,0.00,,CLR,0.00,VWS V14.01,2013-07-18 07:00:00,
2013-07-18 02:02:00,76.0,73.2,30.12,SE,137,0.0,0.0,91,0.00,,CLR,0.00,VWS V14.01,2013-07-18 07:02:00,
2013-07-18 02:04:00,76.0,73.2,30.12,SE,137,0.0,0.0,91,0.00,,CLR,0.00,VWS V14.01,2013-07-18 07:04:00,
2013-07-18 02:05:00,76.0,73.5,30.12,SE,137,0.0,0.0,92,0.00,,CLR,0.00,VWS V14.01,2013-07-18 07:05:00,
2013-07-18 02:07:00,76.0,73.2,30.12,SE,137,0.0,0.0,91,0.00,,CLR,0.00,VWS V14.01,2013-07-18 07:07:00,
2013-07-18 02:08:00,76.0,73.2,30.12,SE,137,0.0,0.0,91,0.00,,CLR,0.00,VWS V14.01,2013-07-18 07:08:00,
2013-07-18 02:09:00,76.0,73.2,30.12,SE,137,0.0,0.0,91,0.00,,CLR,0.00,VWS V14.01,2013-07-18 07:09:00,
2013-07-18 02:10:00,76.0,73.2,30.12,SE,137,0.0,0.0,91,0.00,,CLR,0.00,VWS V14.01,2013-07-18 07:10:00,
2013-07-18 02:12:00,76.0,73.5,30.12,SE,137,0.0,0.0,92,0.00,,CLR,0.00,VWS V14.01,2013-07-18 07:12:00,
2013-07-18 02:13:00,76.0,73.5,30.12,SE,137,0.0,0.0,92,0.00,,CLR,0.00,VWS V14.01,2013-07-18 07:13:00,
2013-07-18 02:14:00,76.0,73.5,30.12,SE,137,0.0,0.0,92,0.00,,CLR,0.00,VWS V14.01,2013-07-18 07:14:00,
2013-07-18 02:15:00,76.0,73.2,30.11,SE,137,0.0,0.0,91,0.00,,CLR,0.00,VWS V14.01,2013-07-18 07:15:00,
2013-07-18 02:17:00,76.0,73.5,30.11,SE,137,0.0,0.0,92,0.00,,CLR,0.00,VWS V14.01,2013-07-18 07:17:00,
2013-07-18 02:18:00,76.0,73.5,30.11,SE,137,0.0,0.0,92,0.00,,CLR,0.00,VWS V14.01,2013-07-18 07:18:00,
2013-07-18 02:19:00,76.0,73.2,30.11,SE,137,0.0,0.0,91,0.00,,CLR,0.00,VWS V14.01,2013-07-18 07:19:00,
2013-07-18 02:21:00,76.0,73.2,30.11,SE,137,0.0,0.0,91,0.00,,CLR,0.00,VWS V14.01,2013-07-18 07:21:00,
2013-07-18 02:23:00,76.0,73.2,30.11,SE,137,0.0,0.0,91,0.00,,CLR,0.00,VWS V14.01,2013-07-18 07:23:00,
2013-07-18 02:25:00,76.0,73.2,30.11,SE,137,0.0,0.0,91,0.00,,CLR,0.00,VWS V14.01,2013-07-18 07:25:00,
2013-07-18 02:26:00,75.9,73.1,30.11,SE,137,0.0,0.0,91,0.00,,CLR,0.00,VWS V14.01,2013-07-18 07:26:00,
2013-07-18 02:28:00,75.9,73.1,30.11,SE,137,0.0,0.0,91,0.00,,CLR,0.00,VWS V14.01,2013-07-18 07:28:00,
2013-07-18 02:29:00,75.9,73.1,30.11,SE,137,0.0,0.0,91,0.00,,CLR,0.00,VWS V14.01,2013-07-18 07:29:00,
2013-07-18 02:30:00,75.7,72.9,30.11,SE,137,0.0,0.0,91,0.00,,,0.00,VWS V14.01,2013-07-18 07:30:00,
2013-07-18 02:31:00,75.7,72.9,30.11,SE,137,0.0,0.0,91,0.00,,CLR,0.00,VWS V14.01,2013-07-18 07:31:00,
2013-07-18 02:33:00,75.9,73.1,30.11,SE,137,0.0,0.0,91,0.00,,CLR,0.00,VWS V14.01,2013-07-18 07:33:00,
2013-07-18 02:35:00,75.9,73.1,30.11,SE,137,0.0,0.0,91,0.00,,CLR,0.00,VWS V14.01,2013-07-18 07:35:00,
2013-07-18 02:36:00,75.7,72.9,30.11,SE,137,0.0,0.0,91,0.00,,CLR,0.00,VWS V14.01,2013-07-18 07:36:00,
2013-07-18 02:38:00,75.7,72.9,30.11,SE,137,0.0,0.0,91,0.00,,CLR,0.00,VWS V14.01,2013-07-18 07:38:00,
2013-07-18 02:39:00,75.7,72.9,30.11,SE,137,0.0,0.0,91,0.00,,CLR,0.00,VWS V14.01,2013-07-18 07:39:00,
2013-07-18 02:40:00,75.7,72.9,30.11,SE,137,0.0,0.0,91,0.00,,CLR,0.00,VWS V14.01,2013-07-18 07:40:00,
2013-07-18 02:41:00,75.7,72.9,30.11,SE,137,0.0,0.0,91,0.00,,CLR,0.00,VWS V14.01,2013-07-18 07:41:00,
2013-07-18 02:42:00,75.7,72.9,30.11,SE,137,0.0,0.0,91,0.00,,CLR,0.00,VWS V14.01,2013-07-18 07:42:00,
2013-07-18 02:43:00,75.7,72.9,30.11,SE,137,0.0,0.0,91,0.00,,CLR,0.00,VWS V14.01,2013-07-18 07:43:00,
2013-07-18 02:44:00,75.7,72.9,30.11,SE,137,0.0,0.0,91,0.00,,CLR,0.00,VWS V14.01,2013-07-18 07:44:00,
2013-07-18 02:45:00,75.9,73.1,30.11,SE,137,0.0,0.0,91,0.00,,CLR,0.00,VWS V14.01,2013-07-18 07:45:00,
2013-07-18 02:46:00,75.9,73.1,30.11,SE,137,0.0,0.0,91,0.00,,CLR,0.00,VWS V14.01,2013-07-18 07:46:00,
2013-07-18 02:47:00,75.9,73.1,30.11,SE,137,0.0,0.0,91,0.00,,CLR,0.00,VWS V14.01,2013-07-18 07:47:00,
2013-07-18 02:48:00,75.9,72.8,30.11,SE,137,0.0,0.0,90,0.00,,CLR,0.00,VWS V14.01,2013-07-18 07:48:00,
2013-07-18 02:49:00,75.9,72.8,30.11,SE,137,0.0,0.0,90,0.00,,CLR,0.00,VWS V14.01,2013-07-18 07:49:00,
2013-07-18 02:50:00,75.9,72.8,30.11,SE,137,0.0,0.0,90,0.00,,CLR,0.00,VWS V14.01,2013-07-18 07:50:00,
2013-07-18 02:51:00,75.9,72.8,30.11,SE,137,0.0,0.0,90,0.00,,CLR,0.00,VWS V14.01,2013-07-18 07:51:00,
2013-07-18 02:52:00,75.9,72.8,30.11,SE,137,0.0,0.0,90,0.00,,CLR,0.00,VWS V14.01,2013-07-18 07:52:00,
2013-07-18 02:53:00,75.9,73.1,30.11,SE,137,0.0,0.0,91,0.00,,CLR,0.00,VWS V14.01,2013-07-18 07:53:00,
2013-07-18 02:54:00,75.9,72.8,30.11,SE,137,0.0,0.0,90,0.00,,CLR,0.00,VWS V14.01,2013-07-18 07:54:00,
2013-07-18 02:55:00,75.9,72.8,30.11,SE,137,0.0,0.0,90,0.00,,CLR,0.00,VWS V14.01,2013-07-18 07:55:00,
2013-07-18 02:56:00,75.9,72.8,30.11,SE,137,0.0,0.0,90,0.00,,CLR,0.00,VWS V14.01,2013-07-18 07:56:00,
2013-07-18 02:57:00,75.9,72.8,30.11,SE,137,0.0,0.0,90,0.00,,CLR,0.00,VWS V14.01,2013-07-18 07:57:00,
2013-07-18 02:58:00,75.7,72.6,30.11,SE,137,0.0,0.0,90,0.00,,CLR,0.00,VWS V14.01,2013-07-18 07:58:00,
2013-07-18 02:59:00,75.7,72.6,30.11,SE,137,0.0,0.0,90,0.00,,CLR,0.00,VWS V14.01,2013-07-18 07:59:00,
2013-07-18 03:00:00,75.9,72.8,30.11,SE,137,0.0,0.0,90,0.00,,,0.00,VWS V14.01,2013-07-18 08:00:00,
2013-07-18 03:01:00,75.9,72.8,30.11,SE,137,0.0,0.0,90,0.00,,,0.00,VWS V14.01,2013-07-18 08:01:00,
2013-07-18 03:02:00,75.9,72.8,30.11,SE,137,0.0,0.0,90,0.00,,,0.00,VWS V14.01,2013-07-18 08:02:00,
2013-07-18 03:04:00,75.9,72.8,30.11,SE,137,0.0,0.0,90,0.00,,,0.00,VWS V14.01,2013-07-18 08:04:00,
2013-07-18 03:05:00,75.9,72.8,30.11,SE,137,0.0,0.0,90,0.00,,,0.00,VWS V14.01,2013-07-18 08:05:00,
2013-07-18 03:06:00,75.9,72.8,30.11,SE,137,0.0,0.0,90,0.00,,,0.00,VWS V14.01,2013-07-18 08:06:00,
2013-07-18 03:07:00,75.9,72.8,30.11,SE,137,0.0,0.0,90,0.00,,,0.00,VWS V14.01,2013-07-18 08:07:00,
2013-07-18 03:10:00,75.7,72.6,30.11,SE,137,0.0,0.0,90,0.00,,,0.00,VWS V14.01,2013-07-18 08:10:00,
2013-07-18 03:11:00,75.9,72.8,30.11,SE,137,0.0,0.0,90,0.00,,,0.00,VWS V14.01,2013-07-18 08:11:00,
2013-07-18 03:12:00,75.9,72.8,30.11,SE,137,0.0,0.0,90,0.00,,,0.00,VWS V14.01,2013-07-18 08:12:00,
2013-07-18 03:15:00,75.9,72.8,30.10,SE,137,0.0,0.0,90,0.00,,,0.00,VWS V14.01,2013-07-18 08:15:00,
2013-07-18 03:16:00,76.0,72.9,30.10,SE,137,0.0,0.0,90,0.00,,,0.00,VWS V14.01,2013-07-18 08:16:00,
2013-07-18 03:17:00,76.0,72.9,30.10,SE,137,0.0,0.0,90,0.00,,,0.00,VWS V14.01,2013-07-18 08:17:00,
2013-07-18 03:20:00,75.9,72.8,30.10,SE,137,0.0,0.0,90,0.00,,,0.00,VWS V14.01,2013-07-18 08:20:00,
2013-07-18 03:21:00,76.0,72.9,30.10,SE,137,0.0,0.0,90,0.00,,,0.00,VWS V14.01,2013-07-18 08:21:00,
2013-07-18 03:22:00,76.0,72.9,30.10,SE,137,0.0,0.0,90,0.00,,,0.00,VWS V14.01,2013-07-18 08:22:00,
2013-07-18 03:25:00,75.9,72.8,30.10,SE,137,0.0,0.0,90,0.00,,,0.00,VWS V14.01,2013-07-18 08:25:00,
2013-07-18 03:26:00,75.9,72.8,30.10,SE,137,0.0,0.0,90,0.00,,,0.00,VWS V14.01,2013-07-18 08:26:00,
2013-07-18 03:27:00,75.9,72.8,30.10,SE,137,0.0,0.0,90,0.00,,,0.00,VWS V14.01,2013-07-18 08:27:00,
2013-07-18 03:28:00,75.9,72.8,30.10,SE,137,0.0,0.0,90,0.00,,,0.00,VWS V14.01,2013-07-18 08:28:00,
2013-07-18 03:30:00,76.0,72.9,30.10,SE,137,0.0,0.0,90,0.00,,,0.00,VWS V14.01,2013-07-18 08:30:00,
2013-07-18 03:31:00,76.0,72.9,30.10,SE,137,0.0,0.0,90,0.00,,,0.00,VWS V14.01,2013-07-18 08:31:00,
2013-07-18 03:32:00,76.0,72.9,30.10,SE,137,0.0,0.0,90,0.00,,,0.00,VWS V14.01,2013-07-18 08:32:00,
2013-07-18 03:33:00,76.0,72.9,30.10,SE,137,0.0,0.0,90,0.00,,,0.00,VWS V14.01,2013-07-18 08:33:00,
2013-07-18 03:35:00,76.0,72.9,30.10,SE,137,0.0,0.0,90,0.00,,,0.00,VWS V14.01,2013-07-18 08:35:00,
2013-07-18 03:36:00,75.9,72.8,30.10,SE,137,0.0,0.0,90,0.00,,,0.00,VWS V14.01,2013-07-18 08:36:00,
2013-07-18 03:37:00,75.9,72.8,30.10,SE,137,0.0,0.0,90,0.00,,,0.00,VWS V14.01,2013-07-18 08:37:00,
2013-07-18 03:38:00,75.9,72.8,30.10,SE,137,0.0,0.0,90,0.00,,,0.00,VWS V14.01,2013-07-18 08:38:00,
2013-07-18 03:40:00,75.9,72.8,30.10,SE,137,0.0,0.0,90,0.00,,,0.00,VWS V14.01,2013-07-18 08:40:00,
2013-07-18 03:41:00,75.9,72.8,30.10,SE,137,0.0,0.0,90,0.00,,,0.00,VWS V14.01,2013-07-18 08:41:00,
2013-07-18 03:42:00,75.9,72.8,30.10,SE,137,0.0,0.0,90,0.00,,,0.00,VWS V14.01,2013-07-18 08:42:00,
2013-07-18 03:43:00,75.7,72.6,30.10,SE,137,0.0,0.0,90,0.00,,,0.00,VWS V14.01,2013-07-18 08:43:00,
2013-07-18 03:45:00,75.7,72.6,30.10,SE,137,0.0,0.0,90,0.00,,,0.00,VWS V14.01,2013-07-18 08:45:00,
2013-07-18 03:46:00,75.7,72.6,30.10,SE,137,0.0,0.0,90,0.00,,,0.00,VWS V14.01,2013-07-18 08:46:00,
2013-07-18 03:47:00,75.7,72.6,30.10,SE,137,0.0,0.0,90,0.00,,,0.00,VWS V14.01,2013-07-18 08:47:00,
2013-07-18 03:48:00,75.7,72.6,30.10,SE,137,0.0,0.0,90,0.00,,,0.00,VWS V14.01,2013-07-18 08:48:00,
2013-07-18 03:50:00,75.5,72.4,30.10,SE,137,0.0,0.0,90,0.00,,,0.00,VWS V14.01,2013-07-18 08:50:00,
2013-07-18 03:51:00,75.5,72.4,30.10,SE,137,0.0,0.0,90,0.00,,,0.00,VWS V14.01,2013-07-18 08:51:00,
2013-07-18 03:52:00,75.5,72.4,30.10,SE,137,0.0,0.0,90,0.00,,,0.00,VWS V14.01,2013-07-18 08:52:00,
2013-07-18 03:53:00,75.5,72.4,30.10,SE,137,0.0,0.0,90,0.00,,,0.00,VWS V14.01,2013-07-18 08:53:00,
2013-07-18 03:55:00,75.3,72.2,30.10,SE,137,0.0,0.0,90,0.00,,,0.00,VWS V14.01,2013-07-18 08:55:00,
2013-07-18 03:56:00,75.3,72.2,30.10,SE,137,0.0,0.0,90,0.00,,,0.00,VWS V14.01,2013-07-18 08:56:00,
2013-07-18 03:57:00,75.3,72.2,30.10,SE,137,0.0,0.0,90,0.00,,,0.00,VWS V14.01,2013-07-18 08:57:00,
2013-07-18 03:58:00,75.3,72.2,30.10,SE,137,0.0,0.0,90,0.00,,,0.00,VWS V14.01,2013-07-18 08:58:00,
2013-07-18 04:00:00,75.3,72.2,30.10,SE,137,0.0,0.0,90,0.00,,,0.00,VWS V14.01,2013-07-18 09:00:00,
2013-07-18 04:01:00,75.3,72.2,30.10,SE,137,0.0,0.0,90,0.00,,CLR,0.00,VWS V14.01,2013-07-18 09:01:00,
2013-07-18 04:02:00,75.3,72.2,30.10,SE,137,0.0,0.0,90,0.00,,CLR,0.00,VWS V14.01,2013-07-18 09:02:00,
2013-07-18 04:03:00,75.2,72.1,30.10,SE,137,0.0,0.0,90,0.00,,CLR,0.00,VWS V14.01,2013-07-18 09:03:00,
2013-07-18 04:06:00,75.2,72.1,30.10,SE,137,0.0,0.0,90,0.00,,CLR,0.00,VWS V14.01,2013-07-18 09:06:00,
2013-07-18 04:07:00,75.2,72.1,30.10,SE,137,0.0,0.0,90,0.00,,CLR,0.00,VWS V14.01,2013-07-18 09:07:00,
2013-07-18 04:08:00,75.2,72.4,30.10,SE,137,0.0,0.0,91,0.00,,CLR,0.00,VWS V14.01,2013-07-18 09:08:00,
2013-07-18 04:11:00,75.0,72.2,30.10,SE,137,0.0,0.0,91,0.00,,CLR,0.00,VWS V14.01,2013-07-18 09:11:00,
2013-07-18 04:12:00,75.0,72.2,30.10,SE,137,0.0,0.0,91,0.00,,CLR,0.00,VWS V14.01,2013-07-18 09:12:00,
2013-07-18 04:13:00,75.0,72.2,30.10,SE,137,0.0,0.0,91,0.00,,CLR,0.00,VWS V14.01,2013-07-18 09:13:00,
2013-07-18 04:16:00,75.0,72.2,30.10,SE,137,0.0,0.0,91,0.00,,CLR,0.00,VWS V14.01,2013-07-18 09:16:00,
2013-07-18 04:17:00,75.0,72.2,30.10,SE,137,0.0,0.0,91,0.00,,CLR,0.00,VWS V14.01,2013-07-18 09:17:00,
2013-07-18 04:18:00,75.0,72.2,30.10,SE,137,0.0,0.0,91,0.00,,CLR,0.00,VWS V14.01,2013-07-18 09:18:00,
2013-07-18 04:21:00,74.8,72.0,30.10,SE,137,0.0,0.0,91,0.00,,CLR,0.00,VWS V14.01,2013-07-18 09:21:00,
2013-07-18 04:22:00,74.8,72.0,30.10,SE,137,0.0,0.0,91,0.00,,CLR,0.00,VWS V14.01,2013-07-18 09:22:00,
2013-07-18 04:23:00,74.8,72.0,30.10,SE,137,0.0,0.0,91,0.00,,CLR,0.00,VWS V14.01,2013-07-18 09:23:00,
2013-07-18 04:24:00,74.8,72.0,30.10,SE,137,0.0,0.0,91,0.00,,CLR,0.00,VWS V14.01,2013-07-18 09:24:00,
2013-07-18 04:26:00,74.8,72.0,30.10,SE,137,0.0,0.0,91,0.00,,CLR,0.00,VWS V14.01,2013-07-18 09:26:00,
2013-07-18 04:27:00,74.8,72.0,30.10,SE,137,0.0,0.0,91,0.00,,CLR,0.00,VWS V14.01,2013-07-18 09:27:00,
2013-07-18 04:28:00,74.8,72.0,30.10,SE,137,0.0,0.0,91,0.00,,CLR,0.00,VWS V14.01,2013-07-18 09:28:00,
2013-07-18 04:29:00,74.8,72.0,30.10,SE,137,0.0,0.0,91,0.00,,CLR,0.00,VWS V14.01,2013-07-18 09:29:00,
2013-07-18 04:30:00,74.8,72.0,30.10,SE,137,0.0,0.0,91,0.00,,,0.00,VWS V14.01,2013-07-18 09:30:00,
2013-07-18 04:31:00,74.8,72.0,30.10,SE,137,0.0,0.0,91,0.00,,CLR,0.00,VWS V14.01,2013-07-18 09:31:00,
2013-07-18 04:32:00,74.8,72.0,30.10,SE,137,0.0,0.0,91,0.00,,CLR,0.00,VWS V14.01,2013-07-18 09:32:00,
2013-07-18 04:33:00,74.6,71.8,30.10,SE,137,0.0,0.0,91,0.00,,CLR,0.00,VWS V14.01,2013-07-18 09:33:00,
2013-07-18 04:34:00,74.6,71.8,30.10,SE,137,0.0,0.0,91,0.00,,CLR,0.00,VWS V14.01,2013-07-18 09:34:00,
2013-07-18 04:37:00,74.6,71.8,30.10,SE,137,0.0,0.0,91,0.00,,CLR,0.00,VWS V14.01,2013-07-18 09:37:00,
2013-07-18 04:38:00,74.6,71.8,30.10,SE,137,0.0,0.0,91,0.00,,CLR,0.00,VWS V14.01,2013-07-18 09:38:00,
2013-07-18 04:39:00,74.6,71.8,30.10,SE,137,0.0,0.0,91,0.00,,CLR,0.00,VWS V14.01,2013-07-18 09:39:00,
2013-07-18 04:43:00,74.6,71.8,30.10,SE,137,0.0,0.0,91,0.00,,CLR,0.00,VWS V14.01,2013-07-18 09:43:00,
2013-07-18 04:44:00,74.6,71.8,30.10,SE,137,0.0,0.0,91,0.00,,CLR,0.00,VWS V14.01,2013-07-18 09:44:00,
2013-07-18 04:48:00,74.5,72.0,30.10,SE,137,0.0,0.0,92,0.00,,CLR,0.00,VWS V14.01,2013-07-18 09:48:00,
2013-07-18 04:49:00,74.5,72.0,30.10,SE,137,0.0,0.0,92,0.00,,CLR,0.00,VWS V14.01,2013-07-18 09:49:00,
2013-07-18 04:50:00,74.5,72.0,30.10,SE,137,0.0,0.0,92,0.00,,CLR,0.00,VWS V14.01,2013-07-18 09:50:00,
2013-07-18 04:53:00,74.5,72.0,30.10,SE,137,0.0,0.0,92,0.00,,CLR,0.00,VWS V14.01,2013-07-18 09:53:00,
2013-07-18 04:54:00,74.5,72.0,30.10,SE,137,0.0,0.0,92,0.00,,CLR,0.00,VWS V14.01,2013-07-18 09:54:00,
2013-07-18 04:55:00,74.3,71.8,30.10,SE,137,0.0,0.0,92,0.00,,CLR,0.00,VWS V14.01,2013-07-18 09:55:00,
2013-07-18 04:58:00,74.3,71.8,30.10,SE,137,0.0,0.0,92,0.00,,CLR,0.00,VWS V14.01,2013-07-18 09:58:00,
2013-07-18 04:59:00,74.3,71.8,30.10,SE,137,0.0,0.0,92,0.00,,CLR,0.00,VWS V14.01,2013-07-18 09:59:00,
2013-07-18 05:00:00,74.3,71.8,30.10,SE,137,0.0,0.0,92,0.00,,CLR,0.00,VWS V14.01,2013-07-18 10:00:00,
2013-07-18 05:03:00,74.3,71.8,30.10,SE,137,0.0,0.0,92,0.00,,CLR,0.00,VWS V14.01,2013-07-18 10:03:00,
2013-07-18 05:04:00,74.3,71.8,30.10,SE,137,0.0,0.0,92,0.00,,CLR,0.00,VWS V14.01,2013-07-18 10:04:00,
2013-07-18 05:05:00,74.1,71.6,30.10,SE,137,0.0,0.0,92,0.00,,CLR,0.00,VWS V14.01,2013-07-18 10:05:00,
2013-07-18 05:08:00,74.1,71.6,30.10,SE,137,0.0,0.0,92,0.00,,CLR,0.00,VWS V14.01,2013-07-18 10:08:00,
2013-07-18 05:09:00,74.1,71.6,30.10,SE,137,0.0,0.0,92,0.00,,CLR,0.00,VWS V14.01,2013-07-18 10:09:00,
2013-07-18 05:10:00,74.1,71.6,30.10,SE,137,0.0,0.0,92,0.00,,CLR,0.00,VWS V14.01,2013-07-18 10:10:00,
2013-07-18 05:13:00,74.1,71.6,30.10,SE,137,0.0,0.0,92,0.00,,CLR,0.00,VWS V14.01,2013-07-18 10:13:00,
2013-07-18 05:14:00,74.1,71.6,30.10,SE,137,0.0,0.0,92,0.00,,CLR,0.00,VWS V14.01,2013-07-18 10:14:00,
2013-07-18 05:15:00,74.1,71.6,30.10,SE,137,0.0,0.0,92,0.00,,CLR,0.00,VWS V14.01,2013-07-18 10:15:00,
2013-07-18 05:16:00,74.1,71.6,30.10,SE,137,0.0,0.0,92,0.00,,CLR,0.00,VWS V14.01,2013-07-18 10:16:00,
2013-07-18 05:19:00,74.1,71.6,30.10,SE,137,0.0,0.0,92,0.00,,CLR,0.00,VWS V14.01,2013-07-18 10:19:00,
2013-07-18 05:20:00,73.9,71.4,30.10,SE,137,0.0,0.0,92,0.00,,CLR,0.00,VWS V14.01,2013-07-18 10:20:00,
2013-07-18 05:21:00,73.9,71.4,30.10,SE,137,0.0,0.0,92,0.00,,CLR,0.00,VWS V14.01,2013-07-18 10:21:00,
2013-07-18 05:24:00,73.9,71.4,30.10,SE,137,0.0,0.0,92,0.00,,CLR,0.00,VWS V14.01,2013-07-18 10:24:00,
2013-07-18 05:25:00,73.9,71.4,30.10,SE,137,0.0,0.0,92,0.00,,CLR,0.00,VWS V14.01,2013-07-18 10:25:00,
2013-07-18 05:26:00,73.9,71.4,30.10,SE,137,0.0,0.0,92,0.00,,CLR,0.00,VWS V14.01,2013-07-18 10:26:00,
2013-07-18 05:29:00,73.9,71.4,30.10,SE,137,0.0,0.0,92,0.00,,CLR,0.00,VWS V14.01,2013-07-18 10:29:00,
2013-07-18 05:30:00,73.8,71.3,30.10,SE,137,0.0,0.0,92,0.00,,CLR,0.00,VWS V14.01,2013-07-18 10:30:00,
2013-07-18 05:31:00,73.8,71.3,30.10,SE,137,0.0,0.0,92,0.00,,CLR,0.00,VWS V14.01,2013-07-18 10:31:00,
2013-07-18 05:34:00,73.8,71.3,30.10,SE,137,0.0,0.0,92,0.00,,CLR,0.00,VWS V14.01,2013-07-18 10:34:00,
2013-07-18 05:35:00,73.8,71.3,30.10,SE,137,0.0,0.0,92,0.00,,CLR,0.00,VWS V14.01,2013-07-18 10:35:00,
2013-07-18 05:36:00,73.8,71.3,30.10,SE,137,0.0,0.0,92,0.00,,CLR,0.00,VWS V14.01,2013-07-18 10:36:00,
2013-07-18 05:40:00,73.8,71.3,30.10,SE,137,0.0,0.0,92,0.00,,CLR,0.00,VWS V14.01,2013-07-18 10:40:00,
2013-07-18 05:41:00,73.6,71.1,30.10,SE,137,0.0,0.0,92,0.00,,CLR,0.00,VWS V14.01,2013-07-18 10:41:00,
2013-07-18 05:45:00,73.6,71.1,30.10,SE,137,0.0,0.0,92,0.00,,,0.00,VWS V14.01,2013-07-18 10:45:00,
2013-07-18 05:46:00,73.6,71.1,30.10,SE,137,0.0,0.0,92,0.00,,,0.00,VWS V14.01,2013-07-18 10:46:00,
2013-07-18 05:47:00,73.6,71.1,30.10,SE,137,0.0,0.0,92,0.00,,,0.00,VWS V14.01,2013-07-18 10:47:00,
2013-07-18 05:50:00,73.4,71.3,30.10,SE,137,0.0,0.0,93,0.00,,,0.00,VWS V14.01,2013-07-18 10:50:00,
2013-07-18 05:51:00,73.4,71.3,30.10,SE,137,0.0,0.0,93,0.00,,,0.00,VWS V14.01,2013-07-18 10:51:00,
2013-07-18 05:52:00,73.4,71.3,30.10,SE,137,0.0,0.0,93,0.00,,,0.00,VWS V14.01,2013-07-18 10:52:00,
2013-07-18 05:55:00,73.6,71.5,30.10,SE,137,0.0,0.0,93,0.00,,,0.00,VWS V14.01,2013-07-18 10:55:00,
2013-07-18 05:56:00,73.6,71.5,30.10,SE,137,0.0,0.0,93,0.00,,,0.00,VWS V14.01,2013-07-18 10:56:00,
2013-07-18 05:57:00,73.6,71.5,30.10,SE,137,0.0,0.0,93,0.00,,,0.00,VWS V14.01,2013-07-18 10:57:00,
2013-07-18 06:00:00,73.4,71.3,30.10,SE,137,0.0,0.0,93,0.00,,,0.00,VWS V14.01,2013-07-18 11:00:00,
2013-07-18 06:01:00,73.4,71.3,30.10,SE,137,0.0,0.0,93,0.00,,,0.00,VWS V14.01,2013-07-18 11:01:00,
2013-07-18 06:02:00,73.4,71.3,30.10,SE,137,0.0,0.0,93,0.00,,,0.00,VWS V14.01,2013-07-18 11:02:00,
2013-07-18 06:06:00,73.4,71.3,30.10,SE,137,0.0,0.0,93,0.00,,,0.00,VWS V14.01,2013-07-18 11:06:00,
2013-07-18 06:07:00,73.4,71.3,30.10,SE,137,0.0,0.0,93,0.00,,,0.00,VWS V14.01,2013-07-18 11:07:00,
2013-07-18 06:11:00,73.4,71.3,30.10,SE,137,0.0,0.0,93,0.00,,,0.00,VWS V14.01,2013-07-18 11:11:00,
2013-07-18 06:12:00,73.4,71.3,30.10,SE,137,0.0,0.0,93,0.00,,,0.00,VWS V14.01,2013-07-18 11:12:00,
2013-07-18 06:16:00,73.4,71.3,30.11,SE,137,0.0,0.0,93,0.00,,,0.00,VWS V14.01,2013-07-18 11:16:00,
2013-07-18 06:17:00,73.4,71.3,30.11,SE,137,0.0,0.0,93,0.00,,,0.00,VWS V14.01,2013-07-18 11:17:00,
2013-07-18 06:21:00,73.6,71.5,30.11,SE,137,0.0,0.0,93,0.00,,,0.00,VWS V14.01,2013-07-18 11:21:00,
2013-07-18 06:22:00,73.6,71.5,30.11,SE,137,0.0,0.0,93,0.00,,,0.00,VWS V14.01,2013-07-18 11:22:00,
2013-07-18 06:26:00,73.6,71.5,30.11,SE,137,0.0,0.0,93,0.00,,,0.00,VWS V14.01,2013-07-18 11:26:00,
2013-07-18 06:27:00,73.6,71.5,30.11,SE,137,0.0,0.0,93,0.00,,,0.00,VWS V14.01,2013-07-18 11:27:00,
2013-07-18 06:28:00,73.6,71.5,30.11,SE,137,0.0,0.0,93,0.00,,,0.00,VWS V14.01,2013-07-18 11:28:00,
2013-07-18 06:30:00,73.8,71.7,30.11,SE,137,0.0,0.0,93,0.00,,,0.00,VWS V14.01,2013-07-18 11:30:00,
2013-07-18 06:32:00,73.8,71.7,30.11,SE,137,0.0,0.0,93,0.00,,,0.00,VWS V14.01,2013-07-18 11:32:00,
2013-07-18 06:33:00,73.8,71.7,30.11,SE,137,0.0,0.0,93,0.00,,,0.00,VWS V14.01,2013-07-18 11:33:00,
2013-07-18 06:37:00,73.9,71.8,30.11,SE,137,0.0,0.0,93,0.00,,,0.00,VWS V14.01,2013-07-18 11:37:00,
2013-07-18 06:38:00,73.9,71.8,30.11,SE,137,0.0,0.0,93,0.00,,,0.00,VWS V14.01,2013-07-18 11:38:00,
2013-07-18 06:42:00,73.9,71.8,30.11,SE,137,0.0,0.0,93,0.00,,,0.00,VWS V14.01,2013-07-18 11:42:00,
2013-07-18 06:43:00,73.9,71.8,30.11,SE,137,0.0,0.0,93,0.00,,,0.00,VWS V14.01,2013-07-18 11:43:00,
2013-07-18 06:47:00,74.1,71.9,30.11,SE,137,0.0,0.0,93,0.00,,,0.00,VWS V14.01,2013-07-18 11:47:00,
2013-07-18 06:48:00,74.1,71.9,30.11,SE,137,0.0,0.0,93,0.00,,,0.00,VWS V14.01,2013-07-18 11:48:00,
2013-07-18 06:52:00,74.1,71.9,30.11,SE,137,0.0,0.0,93,0.00,,,0.00,VWS V14.01,2013-07-18 11:52:00,
2013-07-18 06:53:00,74.3,72.5,30.11,SE,137,0.0,0.0,94,0.00,,,0.00,VWS V14.01,2013-07-18 11:53:00,
2013-07-18 06:54:00,74.3,72.5,30.11,SE,137,0.0,0.0,94,0.00,,,0.00,VWS V14.01,2013-07-18 11:54:00,
2013-07-18 06:57:00,74.5,72.3,30.11,SE,137,0.0,0.0,93,0.00,,,0.00,VWS V14.01,2013-07-18 11:57:00,
2013-07-18 06:58:00,74.5,72.3,30.11,SE,137,0.0,0.0,93,0.00,,,0.00,VWS V14.01,2013-07-18 11:58:00,
2013-07-18 06:59:00,74.5,72.3,30.11,SE,137,0.0,0.0,93,0.00,,,0.00,VWS V14.01,2013-07-18 11:59:00,
2013-07-18 07:00:00,74.5,72.7,30.11,SE,137,0.0,0.0,94,0.00,,,0.00,VWS V14.01,2013-07-18 12:00:00,
2013-07-18 07:02:00,74.6,72.4,30.11,SE,137,0.0,0.0,93,0.00,,,0.00,VWS V14.01,2013-07-18 12:02:00,
2013-07-18 07:04:00,74.6,72.4,30.11,SE,137,0.0,0.0,93,0.00,,,0.00,VWS V14.01,2013-07-18 12:04:00,
2013-07-18 07:07:00,74.8,72.6,30.11,SE,137,0.0,0.0,93,0.00,,,0.00,VWS V14.01,2013-07-18 12:07:00,
2013-07-18 07:08:00,74.8,73.0,30.11,SE,137,0.0,0.0,94,0.00,,,0.00,VWS V14.01,2013-07-18 12:08:00,
2013-07-18 07:09:00,74.8,73.0,30.11,SE,137,0.0,0.0,94,0.00,,,0.00,VWS V14.01,2013-07-18 12:09:00,
2013-07-18 07:12:00,75.0,72.8,30.11,SE,137,0.0,0.0,93,0.00,,,0.00,VWS V14.01,2013-07-18 12:12:00,
2013-07-18 07:13:00,75.0,72.8,30.11,SE,137,0.0,0.0,93,0.00,,,0.00,VWS V14.01,2013-07-18 12:13:00,
2013-07-18 07:14:00,75.2,73.0,30.11,SE,137,0.0,0.0,93,0.00,,,0.00,VWS V14.01,2013-07-18 12:14:00,
2013-07-18 07:18:00,75.3,73.1,30.11,SE,137,0.0,0.0,93,0.00,,,0.00,VWS V14.01,2013-07-18 12:18:00,
2013-07-18 07:19:00,75.5,73.3,30.11,SE,137,0.0,0.0,93,0.00,,,0.00,VWS V14.01,2013-07-18 12:19:00,
2013-07-18 07:23:00,75.9,73.7,30.11,SE,137,0.0,0.0,93,0.00,,,0.00,VWS V14.01,2013-07-18 12:23:00,
2013-07-18 07:24:00,75.9,73.4,30.11,SE,137,0.0,0.0,92,0.00,,,0.00,VWS V14.01,2013-07-18 12:24:00,
2013-07-18 07:28:00,76.4,73.9,30.11,SE,137,0.0,0.0,92,0.00,,,0.00,VWS V14.01,2013-07-18 12:28:00,
2013-07-18 07:29:00,76.4,73.6,30.11,SE,137,0.0,0.0,91,0.00,,,0.00,VWS V14.01,2013-07-18 12:29:00,
2013-07-18 07:30:00,76.6,73.8,30.11,SE,137,0.0,0.0,91,0.00,,,0.00,VWS V14.01,2013-07-18 12:30:00,
2013-07-18 07:33:00,77.3,74.1,30.11,SE,137,0.0,0.0,90,0.00,,,0.00,VWS V14.01,2013-07-18 12:33:00,
2013-07-18 07:34:00,77.5,74.0,30.11,SE,137,0.0,0.0,89,0.00,,,0.00,VWS V14.01,2013-07-18 12:34:00,
2013-07-18 07:35:00,77.6,73.8,30.11,SE,137,0.0,0.0,88,0.00,,,0.00,VWS V14.01,2013-07-18 12:35:00,
2013-07-18 07:38:00,78.4,73.5,30.11,SE,137,0.0,0.0,85,0.00,,,0.00,VWS V14.01,2013-07-18 12:38:00,
2013-07-18 07:39:00,78.5,73.3,30.11,SE,137,0.0,0.0,84,0.00,,,0.00,VWS V14.01,2013-07-18 12:39:00,
2013-07-18 07:40:00,78.7,73.5,30.11,SE,137,0.0,0.0,84,0.00,,,0.00,VWS V14.01,2013-07-18 12:40:00,
2013-07-18 07:43:00,79.5,72.4,30.11,SE,137,0.0,0.0,79,0.00,,,0.00,VWS V14.01,2013-07-18 12:43:00,
2013-07-18 07:44:00,79.5,72.4,30.11,SE,137,0.0,0.0,79,0.00,,,0.00,VWS V14.01,2013-07-18 12:44:00,
2013-07-18 07:45:00,79.7,72.2,30.11,SE,137,0.0,0.0,78,0.00,,,0.00,VWS V14.01,2013-07-18 12:45:00,
2013-07-18 07:49:00,80.2,71.2,30.11,SE,137,0.0,0.0,74,0.00,,,0.00,VWS V14.01,2013-07-18 12:49:00,
2013-07-18 07:50:00,80.4,71.4,30.11,SE,137,0.0,0.0,74,0.00,,,0.00,VWS V14.01,2013-07-18 12:50:00,
2013-07-18 07:54:00,81.1,71.2,30.11,SE,137,0.0,0.0,72,0.00,,,0.00,VWS V14.01,2013-07-18 12:54:00,
2013-07-18 07:55:00,81.3,71.0,30.11,SE,137,0.0,0.0,71,0.00,,,0.00,VWS V14.01,2013-07-18 12:55:00,
2013-07-18 07:59:00,81.7,70.6,30.11,SE,137,0.0,0.0,69,0.00,,,0.00,VWS V14.01,2013-07-18 12:59:00,
2013-07-18 08:00:00,81.9,71.2,30.11,SE,137,0.0,0.0,70,0.00,,,0.00,VWS V14.01,2013-07-18 13:00:00,
2013-07-18 08:04:00,82.1,71.3,30.11,SE,137,0.0,0.0,70,0.00,,CLR,0.00,VWS V14.01,2013-07-18 13:04:00,
2013-07-18 08:05:00,82.1,71.3,30.11,SE,137,0.0,0.0,70,0.00,,CLR,0.00,VWS V14.01,2013-07-18 13:05:00,
2013-07-18 08:06:00,82.3,72.0,30.11,SE,137,0.0,0.0,71,0.00,,CLR,0.00,VWS V14.01,2013-07-18 13:06:00,
2013-07-18 08:09:00,82.3,71.1,30.11,SE,137,0.0,0.0,69,0.00,,CLR,0.00,VWS V14.01,2013-07-18 13:09:00,
2013-07-18 08:10:00,82.5,71.3,30.11,SE,137,0.0,0.0,69,0.00,,CLR,0.00,VWS V14.01,2013-07-18 13:10:00,
2013-07-18 08:11:00,82.5,71.3,30.11,SE,137,0.0,0.0,69,0.00,,CLR,0.00,VWS V14.01,2013-07-18 13:11:00,
2013-07-18 08:15:00,82.3,70.3,30.11,SE,138,0.0,0.0,67,0.00,,CLR,0.00,VWS V14.01,2013-07-18 13:15:00,
2013-07-18 08:16:00,82.5,71.3,30.11,SE,138,0.0,0.0,69,0.00,,CLR,0.00,VWS V14.01,2013-07-18 13:16:00,
2013-07-18 08:20:00,82.9,72.1,30.11,SE,138,0.0,0.0,70,0.00,,CLR,0.00,VWS V14.01,2013-07-18 13:20:00,
2013-07-18 08:21:00,82.9,71.7,30.11,SE,138,0.0,0.0,69,0.00,,CLR,0.00,VWS V14.01,2013-07-18 13:21:00,
2013-07-18 08:22:00,83.1,71.4,30.11,SE,138,0.0,0.0,68,0.00,,CLR,0.00,VWS V14.01,2013-07-18 13:22:00,
2013-07-18 08:25:00,83.7,72.5,30.11,SE,138,0.0,0.0,69,0.00,,CLR,0.00,VWS V14.01,2013-07-18 13:25:00,
2013-07-18 08:26:00,83.7,72.0,30.11,SE,138,0.0,0.0,68,0.00,,CLR,0.00,VWS V14.01,2013-07-18 13:26:00,
2013-07-18 08:27:00,83.7,71.6,30.11,SE,138,0.0,0.0,67,0.00,,CLR,0.00,VWS V14.01,2013-07-18 13:27:00,
2013-07-18 08:30:00,83.7,71.6,30.11,SE,138,0.0,0.0,67,0.00,,CLR,0.00,VWS V14.01,2013-07-18 13:30:00,
2013-07-18 08:31:00,83.7,71.6,30.11,SE,138,0.0,0.0,67,0.00,,CLR,0.00,VWS V14.01,2013-07-18 13:31:00,
2013-07-18 08:32:00,83.7,71.6,30.11,SE,138,0.0,0.0,67,0.00,,CLR,0.00,VWS V14.01,2013-07-18 13:32:00,
2013-07-18 08:35:00,83.9,72.2,30.11,SE,138,0.0,0.0,68,0.00,,CLR,0.00,VWS V14.01,2013-07-18 13:35:00,
2013-07-18 08:36:00,84.0,71.9,30.11,SE,138,0.0,0.0,67,0.00,,CLR,0.00,VWS V14.01,2013-07-18 13:36:00,
2013-07-18 08:37:00,84.0,71.9,30.11,SE,138,0.0,0.0,67,0.00,,CLR,0.00,VWS V14.01,2013-07-18 13:37:00,
2013-07-18 08:40:00,84.2,72.1,30.11,SE,138,0.0,0.0,67,0.00,,CLR,0.00,VWS V14.01,2013-07-18 13:40:00,
2013-07-18 08:41:00,84.2,72.1,30.11,SE,138,0.0,0.0,67,0.00,,CLR,0.00,VWS V14.01,2013-07-18 13:41:00,
2013-07-18 08:42:00,84.4,72.2,30.11,SE,138,0.0,0.0,67,0.00,,CLR,0.00,VWS V14.01,2013-07-18 13:42:00,
2013-07-18 08:45:00,84.6,72.9,30.11,SE,138,0.0,0.0,68,0.00,,CLR,0.00,VWS V14.01,2013-07-18 13:45:00,
2013-07-18 08:46:00,84.8,73.1,30.11,SE,138,0.0,0.0,68,0.00,,CLR,0.00,VWS V14.01,2013-07-18 13:46:00,
2013-07-18 08:47:00,84.8,72.6,30.11,SE,138,0.0,0.0,67,0.00,,CLR,0.00,VWS V14.01,2013-07-18 13:47:00,
2013-07-18 08:50:00,84.6,72.4,30.11,SE,138,0.0,0.0,67,0.00,,CLR,0.00,VWS V14.01,2013-07-18 13:50:00,
2013-07-18 08:51:00,84.6,72.4,30.11,SE,138,0.0,0.0,67,0.00,,CLR,0.00,VWS V14.01,2013-07-18 13:51:00,
2013-07-18 08:52:00,84.6,72.4,30.11,SE,138,0.0,0.0,67,0.00,,CLR,0.00,VWS V14.01,2013-07-18 13:52:00,
2013-07-18 08:56:00,84.4,71.8,30.11,SE,138,0.0,0.0,66,0.00,,CLR,0.00,VWS V14.01,2013-07-18 13:56:00,
2013-07-18 08:57:00,84.2,71.6,30.11,SE,138,0.0,0.0,66,0.00,,CLR,0.00,VWS V14.01,2013-07-18 13:57:00,
2013-07-18 09:00:00,84.2,71.6,30.11,SE,138,0.0,0.0,66,0.00,,,0.00,VWS V14.01,2013-07-18 14:00:00,
2013-07-18 09:01:00,84.2,71.6,30.11,SE,138,0.0,0.0,66,0.00,,CLR,0.00,VWS V14.01,2013-07-18 14:01:00,
2013-07-18 09:02:00,84.2,71.6,30.11,SE,138,0.0,0.0,66,0.00,,CLR,0.00,VWS V14.01,2013-07-18 14:02:00,
2013-07-18 09:06:00,84.2,71.2,30.11,SSE,163,0.0,0.0,65,0.00,,CLR,0.00,VWS V14.01,2013-07-18 14:06:00,
2013-07-18 09:07:00,84.2,71.6,30.11,SSE,163,0.0,0.0,66,0.00,,CLR,0.00,VWS V14.01,2013-07-18 14:07:00,
2013-07-18 09:08:00,84.4,71.8,30.11,SSE,163,0.0,0.0,66,0.00,,CLR,0.00,VWS V14.01,2013-07-18 14:08:00,
2013-07-18 09:11:00,85.0,71.9,30.11,SSE,163,0.0,0.0,65,0.00,,CLR,0.00,VWS V14.01,2013-07-18 14:11:00,
2013-07-18 09:12:00,85.2,72.6,30.11,SSE,163,0.0,0.0,66,0.00,,CLR,0.00,VWS V14.01,2013-07-18 14:12:00,
2013-07-18 09:13:00,85.2,72.6,30.11,SSE,163,0.0,0.0,66,0.00,,CLR,0.00,VWS V14.01,2013-07-18 14:13:00,
2013-07-18 09:16:00,85.8,72.2,30.10,SSE,163,0.0,0.0,64,0.00,,CLR,0.00,VWS V14.01,2013-07-18 14:16:00,
2013-07-18 09:17:00,86.0,72.9,30.10,SSE,163,0.0,0.0,65,0.00,,CLR,0.00,VWS V14.01,2013-07-18 14:17:00,
2013-07-18 09:18:00,86.0,71.9,30.10,SSE,163,0.0,0.0,63,0.00,,CLR,0.00,VWS V14.01,2013-07-18 14:18:00,
2013-07-18 09:21:00,86.4,72.3,30.10,South,171,0.0,0.0,63,0.00,,CLR,0.00,VWS V14.01,2013-07-18 14:21:00,
2013-07-18 09:22:00,86.4,72.3,30.10,South,171,0.0,0.0,63,0.00,,CLR,0.00,VWS V14.01,2013-07-18 14:22:00,
2013-07-18 09:23:00,86.6,71.6,30.10,South,171,0.0,0.0,61,0.00,,CLR,0.00,VWS V14.01,2013-07-18 14:23:00,
2013-07-18 09:26:00,86.6,71.1,30.10,South,171,0.0,0.0,60,0.00,,CLR,0.00,VWS V14.01,2013-07-18 14:26:00,
2013-07-18 09:27:00,86.4,70.9,30.10,South,173,0.0,0.0,60,0.00,,CLR,0.00,VWS V14.01,2013-07-18 14:27:00,
2013-07-18 09:28:00,86.4,70.9,30.10,South,173,0.0,0.0,60,0.00,,CLR,0.00,VWS V14.01,2013-07-18 14:28:00,
2013-07-18 09:30:00,86.2,71.2,30.11,South,173,0.0,0.0,61,0.00,,,0.00,VWS V14.01,2013-07-18 14:30:00,
2013-07-18 09:31:00,86.2,71.7,30.11,South,173,0.0,0.0,62,0.00,,CLR,0.00,VWS V14.01,2013-07-18 14:31:00,
2013-07-18 09:32:00,86.2,71.7,30.11,South,173,0.0,0.0,62,0.00,,CLR,0.00,VWS V14.01,2013-07-18 14:32:00,
2013-07-18 09:33:00,86.2,71.2,30.11,South,173,0.0,0.0,61,0.00,,CLR,0.00,VWS V14.01,2013-07-18 14:33:00,
2013-07-18 09:34:00,86.2,72.1,30.11,South,173,0.0,0.0,63,0.00,,CLR,0.00,VWS V14.01,2013-07-18 14:34:00,
2013-07-18 09:37:00,86.2,72.6,30.11,South,173,0.0,0.0,64,0.00,,CLR,0.00,VWS V14.01,2013-07-18 14:37:00,
2013-07-18 09:38:00,86.2,71.7,30.11,South,175,0.0,0.0,62,0.00,,CLR,0.00,VWS V14.01,2013-07-18 14:38:00,
2013-07-18 09:39:00,86.0,71.5,30.11,South,175,0.0,0.0,62,0.00,,CLR,0.00,VWS V14.01,2013-07-18 14:39:00,
2013-07-18 09:42:00,86.0,72.4,30.11,South,175,0.0,0.0,64,0.00,,CLR,0.00,VWS V14.01,2013-07-18 14:42:00,
2013-07-18 09:43:00,86.0,71.9,30.11,South,175,0.0,0.0,63,0.00,,CLR,0.00,VWS V14.01,2013-07-18 14:43:00,
2013-07-18 09:44:00,86.0,71.5,30.11,South,175,0.0,0.0,62,0.00,,CLR,0.00,VWS V14.01,2013-07-18 14:44:00,
2013-07-18 09:47:00,85.8,71.3,30.10,South,175,0.0,0.0,62,0.00,,CLR,0.00,VWS V14.01,2013-07-18 14:47:00,
2013-07-18 09:48:00,85.8,71.3,30.10,South,175,0.0,0.0,62,0.00,,CLR,0.00,VWS V14.01,2013-07-18 14:48:00,
2013-07-18 09:49:00,85.8,71.3,30.10,South,175,0.0,0.0,62,0.00,,CLR,0.00,VWS V14.01,2013-07-18 14:49:00,
2013-07-18 09:52:00,86.0,71.9,30.10,South,175,0.0,0.0,63,0.00,,CLR,0.00,VWS V14.01,2013-07-18 14:52:00,
2013-07-18 09:53:00,86.0,71.5,30.10,South,175,0.0,0.0,62,0.00,,CLR,0.00,VWS V14.01,2013-07-18 14:53:00,
2013-07-18 09:54:00,86.0,71.5,30.10,South,175,0.0,0.0,62,0.00,,CLR,0.00,VWS V14.01,2013-07-18 14:54:00,
2013-07-18 09:57:00,85.8,71.8,30.10,South,175,0.0,0.0,63,0.00,,CLR,0.00,VWS V14.01,2013-07-18 14:57:00,
2013-07-18 09:58:00,86.0,72.4,30.10,South,175,0.0,0.0,64,0.00,,CLR,0.00,VWS V14.01,2013-07-18 14:58:00,
2013-07-18 09:59:00,86.0,71.9,30.10,South,175,0.0,0.0,63,0.00,,CLR,0.00,VWS V14.01,2013-07-18 14:59:00,
2013-07-18 10:00:00,86.0,72.4,30.10,South,175,0.0,0.0,64,0.00,,,0.00,VWS V14.01,2013-07-18 15:00:00,
2013-07-18 10:02:00,86.4,72.3,30.10,South,175,0.0,0.0,63,0.00,,CLR,0.00,VWS V14.01,2013-07-18 15:02:00,
2013-07-18 10:03:00,86.4,72.3,30.10,South,175,0.0,0.0,63,0.00,,CLR,0.00,VWS V14.01,2013-07-18 15:03:00,
2013-07-18 10:04:00,86.6,72.0,30.10,South,175,0.0,0.0,62,0.00,,CLR,0.00,VWS V14.01,2013-07-18 15:04:00,
2013-07-18 10:07:00,87.1,72.5,30.10,South,175,0.0,0.0,62,0.00,,CLR,0.00,VWS V14.01,2013-07-18 15:07:00,
2013-07-18 10:08:00,87.3,73.2,30.10,South,175,0.0,0.0,63,0.00,,CLR,0.00,VWS V14.01,2013-07-18 15:08:00,
2013-07-18 10:09:00,87.3,73.2,30.10,South,175,0.0,0.0,63,0.00,,CLR,0.00,VWS V14.01,2013-07-18 15:09:00,
2013-07-18 10:12:00,87.7,73.1,30.10,South,175,0.0,0.0,62,0.00,,CLR,0.00,VWS V14.01,2013-07-18 15:12:00,
2013-07-18 10:13:00,87.9,73.3,30.10,South,175,0.0,0.0,62,0.00,,CLR,0.00,VWS V14.01,2013-07-18 15:13:00,
2013-07-18 10:14:00,88.1,73.4,30.10,South,175,0.0,0.0,62,0.00,,CLR,0.00,VWS V14.01,2013-07-18 15:14:00,
2013-07-18 10:15:00,88.3,73.2,30.10,South,175,0.0,0.0,61,0.00,,CLR,0.00,VWS V14.01,2013-07-18 15:15:00,
2013-07-18 10:17:00,88.7,73.0,30.10,South,175,0.0,0.0,60,0.00,,CLR,0.00,VWS V14.01,2013-07-18 15:17:00,
2013-07-18 10:18:00,88.7,72.5,30.10,South,175,0.0,0.0,59,0.00,,CLR,0.00,VWS V14.01,2013-07-18 15:18:00,
2013-07-18 10:19:00,88.7,72.5,30.10,South,175,0.0,0.0,59,0.00,,CLR,0.00,VWS V14.01,2013-07-18 15:19:00,
2013-07-18 10:20:00,88.9,72.7,30.10,South,175,0.0,0.0,59,0.00,,CLR,0.00,VWS V14.01,2013-07-18 15:20:00,
2013-07-18 10:23:00,88.7,72.5,30.10,South,178,0.0,0.0,59,0.00,,CLR,0.00,VWS V14.01,2013-07-18 15:23:00,
2013-07-18 10:24:00,88.5,72.3,30.10,South,178,0.0,0.0,59,0.00,,CLR,0.00,VWS V14.01,2013-07-18 15:24:00,
2013-07-18 10:25:00,88.5,72.8,30.10,South,178,0.0,0.0,60,0.00,,CLR,0.00,VWS V14.01,2013-07-18 15:25:00,
2013-07-18 10:28:00,87.9,73.3,30.10,South,178,0.0,0.0,62,0.00,,CLR,0.00,VWS V14.01,2013-07-18 15:28:00,
2013-07-18 10:29:00,87.9,73.3,30.10,South,177,0.0,0.0,62,0.00,,CLR,0.00,VWS V14.01,2013-07-18 15:29:00,
2013-07-18 10:30:00,87.7,73.1,30.09,South,177,0.0,0.0,62,0.00,,CLR,0.00,VWS V14.01,2013-07-18 15:30:00,
2013-07-18 10:33:00,87.9,73.3,30.09,SSE,159,0.0,0.0,62,0.00,,CLR,0.00,VWS V14.01,2013-07-18 15:33:00,
2013-07-18 10:34:00,88.1,73.0,30.09,SSE,159,0.0,0.0,61,0.00,,CLR,0.00,VWS V14.01,2013-07-18 15:34:00,
2013-07-18 10:35:00,88.1,73.0,30.09,SSE,159,0.0,0.0,61,0.00,,CLR,0.00,VWS V14.01,2013-07-18 15:35:00,
2013-07-18 10:38:00,88.5,72.8,30.09,SSE,166,0.0,0.0,60,0.00,,CLR,0.00,VWS V14.01,2013-07-18 15:38:00,
2013-07-18 10:39:00,88.7,73.0,30.09,SSE,166,0.0,0.0,60,0.00,,CLR,0.00,VWS V14.01,2013-07-18 15:39:00,
2013-07-18 10:40:00,88.9,73.2,30.09,SSE,166,0.0,0.0,60,0.00,,CLR,0.00,VWS V14.01,2013-07-18 15:40:00,
2013-07-18 10:43:00,89.4,72.7,30.09,SSE,166,0.0,0.0,58,0.00,,CLR,0.00,VWS V14.01,2013-07-18 15:43:00,
2013-07-18 10:44:00,89.4,73.2,30.09,SSE,166,0.0,0.0,59,0.00,,CLR,0.00,VWS V14.01,2013-07-18 15:44:00,
2013-07-18 10:45:00,89.4,72.7,30.09,SSE,166,0.0,0.0,58,0.00,,CLR,0.00,VWS V14.01,2013-07-18 15:45:00,
2013-07-18 10:48:00,89.6,72.9,30.09,SSE,166,0.0,0.0,58,0.00,,CLR,0.00,VWS V14.01,2013-07-18 15:48:00,
2013-07-18 10:49:00,89.6,72.9,30.09,SSE,166,0.0,0.0,58,0.00,,CLR,0.00,VWS V14.01,2013-07-18 15:49:00,
2013-07-18 10:50:00,89.8,73.6,30.09,SSE,166,0.0,0.0,59,0.00,,CLR,0.00,VWS V14.01,2013-07-18 15:50:00,
2013-07-18 10:54:00,90.0,72.7,30.09,SSE,167,0.0,0.0,57,0.00,,CLR,0.00,VWS V14.01,2013-07-18 15:54:00,
2013-07-18 10:55:00,89.8,72.6,30.09,SSE,167,0.0,0.0,57,0.00,,CLR,0.00,VWS V14.01,2013-07-18 15:55:00,
2013-07-18 10:56:00,89.8,72.6,30.09,SSE,167,0.0,0.0,57,0.00,,CLR,0.00,VWS V14.01,2013-07-18 15:56:00,
2013-07-18 10:59:00,89.4,72.2,30.09,SSE,164,0.0,0.0,57,0.00,,CLR,0.00,VWS V14.01,2013-07-18 15:59:00,
2013-07-18 11:00:00,89.4,72.7,30.09,South,169,0.0,0.0,58,0.00,,CLR,0.00,VWS V14.01,2013-07-18 16:00:00,
2013-07-18 11:01:00,89.2,72.5,30.09,South,169,0.0,0.0,58,0.00,,CLR,0.00,VWS V14.01,2013-07-18 16:01:00,
2013-07-18 11:04:00,88.7,72.5,30.09,SSW,211,0.0,5.0,59,0.00,,CLR,0.00,VWS V14.01,2013-07-18 16:04:00,
2013-07-18 11:05:00,88.5,71.8,30.09,SSW,213,0.0,5.0,58,0.00,,CLR,0.00,VWS V14.01,2013-07-18 16:05:00,
2013-07-18 11:06:00,88.5,72.3,30.09,SSW,207,0.0,5.0,59,0.00,,CLR,0.00,VWS V14.01,2013-07-18 16:06:00,
2013-07-18 11:09:00,88.5,72.8,30.09,SE,132,0.0,5.0,60,0.00,,CLR,0.00,VWS V14.01,2013-07-18 16:09:00,
2013-07-18 11:10:00,88.5,72.3,30.09,SE,133,0.0,5.0,59,0.00,,CLR,0.00,VWS V14.01,2013-07-18 16:10:00,
2013-07-18 11:11:00,88.7,73.5,30.09,SE,133,0.0,5.0,61,0.00,,CLR,0.00,VWS V14.01,2013-07-18 16:11:00,
2013-07-18 11:14:00,89.2,72.5,30.09,SE,133,0.0,5.0,58,0.00,,CLR,0.00,VWS V14.01,2013-07-18 16:14:00,
2013-07-18 11:15:00,89.2,73.0,30.09,SE,133,0.0,5.0,59,0.00,,CLR,0.00,VWS V14.01,2013-07-18 16:15:00,
2013-07-18 11:16:00,89.2,73.0,30.09,South,180,0.0,5.0,59,0.00,,CLR,0.00,VWS V14.01,2013-07-18 16:16:00,
2013-07-18 11:19:00,88.9,71.7,30.09,South,181,0.0,5.0,57,0.00,,CLR,0.00,VWS V14.01,2013-07-18 16:19:00,
2013-07-18 11:20:00,88.9,71.2,30.09,South,181,0.0,5.0,56,0.00,,CLR,0.00,VWS V14.01,2013-07-18 16:20:00,
2013-07-18 11:21:00,88.9,71.7,30.09,South,181,0.0,5.0,57,0.00,,CLR,0.00,VWS V14.01,2013-07-18 16:21:00,
2013-07-18 11:24:00,88.9,71.2,30.09,South,179,0.0,5.0,56,0.00,,CLR,0.00,VWS V14.01,2013-07-18 16:24:00,
2013-07-18 11:25:00,88.9,71.7,30.09,South,184,0.0,5.0,57,0.00,,CLR,0.00,VWS V14.01,2013-07-18 16:25:00,
2013-07-18 11:26:00,88.7,71.0,30.09,South,184,0.0,5.0,56,0.00,,CLR,0.00,VWS V14.01,2013-07-18 16:26:00,
2013-07-18 11:27:00,88.7,71.5,30.09,South,184,0.0,5.0,57,0.00,,CLR,0.00,VWS V14.01,2013-07-18 16:27:00,
2013-07-18 11:29:00,88.9,71.7,30.09,South,184,0.0,5.0,57,0.00,,CLR,0.00,VWS V14.01,2013-07-18 16:29:00,
2013-07-18 11:30:00,88.9,71.7,30.09,South,184,0.0,5.0,57,0.00,,CLR,0.00,VWS V14.01,2013-07-18 16:30:00,
2013-07-18 11:31:00,89.2,72.5,30.09,South,184,0.0,0.0,58,0.00,,CLR,0.00,VWS V14.01,2013-07-18 16:31:00,
2013-07-18 11:32:00,89.2,72.0,30.09,South,184,0.0,0.0,57,0.00,,CLR,0.00,VWS V14.01,2013-07-18 16:32:00,
2013-07-18 11:35:00,89.8,73.1,30.09,South,184,0.0,0.0,58,0.00,,CLR,0.00,VWS V14.01,2013-07-18 16:35:00,
2013-07-18 11:36:00,89.8,72.6,30.09,South,184,0.0,0.0,57,0.00,,CLR,0.00,VWS V14.01,2013-07-18 16:36:00,
2013-07-18 11:37:00,89.8,71.5,30.09,South,184,0.0,0.0,55,0.00,,CLR,0.00,VWS V14.01,2013-07-18 16:37:00,
2013-07-18 11:40:00,89.8,70.9,30.09,SSE,155,0.0,0.0,54,0.00,,CLR,0.00,VWS V14.01,2013-07-18 16:40:00,
2013-07-18 11:41:00,89.8,71.5,30.09,SSE,155,0.0,0.0,55,0.00,,CLR,0.00,VWS V14.01,2013-07-18 16:41:00,
2013-07-18 11:42:00,89.8,71.5,30.09,SSE,155,0.0,0.0,55,0.00,,CLR,0.00,VWS V14.01,2013-07-18 16:42:00,
2013-07-18 11:45:00,89.8,71.5,30.08,South,170,0.0,1.0,55,0.00,,CLR,0.00,VWS V14.01,2013-07-18 16:45:00,
2013-07-18 11:46:00,90.0,72.2,30.08,South,170,0.0,1.0,56,0.00,,CLR,0.00,VWS V14.01,2013-07-18 16:46:00,
2013-07-18 11:47:00,90.2,72.4,30.08,South,170,0.0,1.0,56,0.00,,CLR,0.00,VWS V14.01,2013-07-18 16:47:00,
2013-07-18 11:50:00,90.9,72.0,30.08,South,170,0.0,1.0,54,0.00,,CLR,0.00,VWS V14.01,2013-07-18 16:50:00,
2013-07-18 11:51:00,90.9,72.0,30.08,South,170,0.0,1.0,54,0.00,,CLR,0.00,VWS V14.01,2013-07-18 16:51:00,
2013-07-18 11:52:00,90.6,71.1,30.08,South,170,0.0,1.0,53,0.00,,CLR,0.00,VWS V14.01,2013-07-18 16:52:00,
2013-07-18 11:53:00,90.6,71.1,30.08,South,170,0.0,1.0,53,0.00,,CLR,0.00,VWS V14.01,2013-07-18 16:53:00,
2013-07-18 11:55:00,90.6,71.1,30.08,South,190,0.0,1.0,53,0.00,,CLR,0.00,VWS V14.01,2013-07-18 16:55:00,
2013-07-18 11:56:00,90.6,71.1,30.08,SSW,192,0.0,1.0,53,0.00,,CLR,0.00,VWS V14.01,2013-07-18 16:56:00,
2013-07-18 11:57:00,90.6,70.6,30.08,SSW,193,0.0,1.0,52,0.00,,CLR,0.00,VWS V14.01,2013-07-18 16:57:00,
2013-07-18 11:58:00,90.6,70.6,30.08,SSW,193,0.0,1.0,52,0.00,,CLR,0.00,VWS V14.01,2013-07-18 16:58:00,
2013-07-18 12:00:00,90.9,71.4,30.08,SSW,195,0.0,1.0,53,0.00,,,0.00,VWS V14.01,2013-07-18 17:00:00,
2013-07-18 12:01:00,90.9,72.0,30.08,SSW,195,0.0,0.0,54,0.00,,CLR,0.00,VWS V14.01,2013-07-18 17:01:00,
2013-07-18 12:02:00,91.1,72.2,30.08,SSW,195,0.0,0.0,54,0.00,,CLR,0.00,VWS V14.01,2013-07-18 17:02:00,
2013-07-18 12:03:00,91.1,72.2,30.08,SSW,195,0.0,0.0,54,0.00,,CLR,0.00,VWS V14.01,2013-07-18 17:03:00,
2013-07-18 12:06:00,90.6,71.7,30.08,SSW,195,0.0,0.0,54,0.00,,CLR,0.00,VWS V14.01,2013-07-18 17:06:00,
2013-07-18 12:07:00,90.6,71.7,30.08,SSW,195,0.0,0.0,54,0.00,,CLR,0.00,VWS V14.01,2013-07-18 17:07:00,
2013-07-18 12:08:00,90.4,70.9,30.08,SSW,195,0.0,1.0,53,0.00,,CLR,0.00,VWS V14.01,2013-07-18 17:08:00,
2013-07-18 12:11:00,90.0,71.7,30.08,SSW,195,0.0,1.0,55,0.00,,CLR,0.00,VWS V14.01,2013-07-18 17:11:00,
2013-07-18 12:12:00,90.0,71.7,30.08,SSW,195,0.0,1.0,55,0.00,,CLR,0.00,VWS V14.01,2013-07-18 17:12:00,
2013-07-18 12:13:00,90.2,71.9,30.08,SSW,195,0.0,1.0,55,0.00,,CLR,0.00,VWS V14.01,2013-07-18 17:13:00,
2013-07-18 12:16:00,90.4,72.6,30.08,South,173,4.0,5.0,56,0.00,,CLR,0.00,VWS V14.01,2013-07-18 17:16:00,
2013-07-18 12:17:00,90.4,72.6,30.08,SSE,167,1.0,5.0,56,0.00,,CLR,0.00,VWS V14.01,2013-07-18 17:17:00,
2013-07-18 12:18:00,90.2,71.3,30.08,South,191,1.0,5.0,54,0.00,,CLR,0.00,VWS V14.01,2013-07-18 17:18:00,
2013-07-18 12:22:00,89.6,71.8,30.08,South,170,0.0,5.0,56,0.00,,CLR,0.00,VWS V14.01,2013-07-18 17:22:00,
2013-07-18 12:23:00,89.6,71.8,30.08,South,170,0.0,5.0,56,0.00,,CLR,0.00,VWS V14.01,2013-07-18 17:23:00,
2013-07-18 12:27:00,89.6,71.8,30.08,South,170,0.0,5.0,56,0.00,,CLR,0.00,VWS V14.01,2013-07-18 17:27:00,
2013-07-18 12:28:00,89.6,71.8,30.08,South,171,0.0,5.0,56,0.00,,CLR,0.00,VWS V14.01,2013-07-18 17:28:00,
2013-07-18 12:30:00,89.8,72.6,30.08,South,170,0.0,5.0,57,0.00,,,0.00,VWS V14.01,2013-07-18 17:30:00,
2013-07-18 12:32:00,90.0,73.2,30.08,South,171,0.0,0.0,58,0.00,,CLR,0.00,VWS V14.01,2013-07-18 17:32:00,
2013-07-18 12:33:00,90.0,73.2,30.08,South,170,0.0,0.0,58,0.00,,CLR,0.00,VWS V14.01,2013-07-18 17:33:00,
2013-07-18 12:34:00,90.0,73.2,30.08,South,186,0.0,2.0,58,0.00,,CLR,0.00,VWS V14.01,2013-07-18 17:34:00,
2013-07-18 12:37:00,90.0,73.2,30.08,South,186,0.0,2.0,58,0.00,,CLR,0.00,VWS V14.01,2013-07-18 17:37:00,
2013-07-18 12:38:00,90.0,71.7,30.08,South,188,0.0,2.0,55,0.00,,CLR,0.00,VWS V14.01,2013-07-18 17:38:00,
2013-07-18 12:39:00,90.0,71.7,30.08,South,188,0.0,2.0,55,0.00,,CLR,0.00,VWS V14.01,2013-07-18 17:39:00,
2013-07-18 12:42:00,90.0,72.2,30.08,South,191,0.0,2.0,56,0.00,,CLR,0.00,VWS V14.01,2013-07-18 17:42:00,
2013-07-18 12:43:00,90.0,72.7,30.08,South,190,0.0,2.0,57,0.00,,CLR,0.00,VWS V14.01,2013-07-18 17:43:00,
2013-07-18 12:44:00,90.0,72.2,30.08,South,190,0.0,2.0,56,0.00,,CLR,0.00,VWS V14.01,2013-07-18 17:44:00,
2013-07-18 12:48:00,90.2,72.9,30.07,SE,135,0.0,2.0,57,0.00,,SCT046,0.00,VWS V14.01,2013-07-18 17:48:00,
2013-07-18 12:49:00,90.4,72.6,30.07,SE,135,0.0,2.0,56,0.00,,SCT046,0.00,VWS V14.01,2013-07-18 17:49:00,
2013-07-18 12:53:00,90.6,72.8,30.07,SE,138,0.0,2.0,56,0.00,,SCT046,0.00,VWS V14.01,2013-07-18 17:53:00,
2013-07-18 12:54:00,90.6,72.2,30.07,South,171,0.0,2.0,55,0.00,,SCT046,0.00,VWS V14.01,2013-07-18 17:54:00,
2013-07-18 12:58:00,90.6,71.7,30.07,SSW,198,0.0,2.0,54,0.00,,SCT046,0.00,VWS V14.01,2013-07-18 17:58:00,
2013-07-18 12:59:00,90.4,70.9,30.07,South,176,0.0,3.0,53,0.00,,SCT046,0.00,VWS V14.01,2013-07-18 17:59:00,
2013-07-18 13:00:00,90.2,71.3,30.06,South,179,0.0,3.0,54,0.00,,,0.00,VWS V14.01,2013-07-18 18:00:00,
2013-07-18 13:03:00,90.2,71.3,30.06,South,179,0.0,0.0,54,0.00,,CLR,0.00,VWS V14.01,2013-07-18 18:03:00,
2013-07-18 13:04:00,90.2,71.3,30.06,South,179,0.0,0.0,54,0.00,,CLR,0.00,VWS V14.01,2013-07-18 18:04:00,
2013-07-18 13:05:00,90.2,71.3,30.06,South,179,0.0,0.0,54,0.00,,CLR,0.00,VWS V14.01,2013-07-18 18:05:00,
2013-07-18 13:08:00,89.8,71.5,30.06,South,179,0.0,0.0,55,0.00,,CLR,0.00,VWS V14.01,2013-07-18 18:08:00,
2013-07-18 13:09:00,89.8,71.5,30.06,South,179,0.0,0.0,55,0.00,,CLR,0.00,VWS V14.01,2013-07-18 18:09:00,
2013-07-18 13:10:00,90.0,73.2,30.06,South,179,0.0,0.0,58,0.00,,CLR,0.00,VWS V14.01,2013-07-18 18:10:00,
2013-07-18 13:13:00,90.0,71.1,30.06,South,182,0.0,4.0,54,0.00,,CLR,0.00,VWS V14.01,2013-07-18 18:13:00,
2013-07-18 13:14:00,90.0,71.7,30.06,SE,140,0.0,4.0,55,0.00,,CLR,0.00,VWS V14.01,2013-07-18 18:14:00,
2013-07-18 13:15:00,90.0,71.7,30.06,SE,140,0.0,4.0,55,0.00,,CLR,0.00,VWS V14.01,2013-07-18 18:15:00,
2013-07-18 13:18:00,90.6,71.7,30.06,SE,140,0.0,4.0,54,0.00,,CLR,0.00,VWS V14.01,2013-07-18 18:18:00,
2013-07-18 13:19:00,90.9,72.0,30.06,SE,140,0.0,4.0,54,0.00,,CLR,0.00,VWS V14.01,2013-07-18 18:19:00,
2013-07-18 13:20:00,90.9,71.4,30.06,SE,140,0.0,4.0,53,0.00,,CLR,0.00,VWS V14.01,2013-07-18 18:20:00,
2013-07-18 13:23:00,91.1,72.7,30.06,ESE,113,0.0,4.0,55,0.00,,CLR,0.00,VWS V14.01,2013-07-18 18:23:00,
2013-07-18 13:24:00,91.1,72.7,30.06,ESE,122,0.0,4.0,55,0.00,,CLR,0.00,VWS V14.01,2013-07-18 18:24:00,
2013-07-18 13:25:00,91.3,73.4,30.06,SE,126,0.0,4.0,56,0.00,,CLR,0.00,VWS V14.01,2013-07-18 18:25:00,
2013-07-18 13:28:00,91.5,73.1,30.06,SE,136,0.0,4.0,55,0.00,,CLR,0.00,VWS V14.01,2013-07-18 18:28:00,
2013-07-18 13:29:00,91.5,73.1,30.06,SE,136,0.0,4.0,55,0.00,,CLR,0.00,VWS V14.01,2013-07-18 18:29:00,
2013-07-18 13:30:00,91.3,72.3,30.05,SSW,213,0.0,4.0,54,0.00,,,0.00,VWS V14.01,2013-07-18 18:30:00,
2013-07-18 13:31:00,91.1,72.2,30.05,SSW,213,0.0,0.0,54,0.00,,CLR,0.00,VWS V14.01,2013-07-18 18:31:00,
2013-07-18 13:34:00,90.9,73.0,30.05,SSW,212,0.0,0.0,56,0.00,,CLR,0.00,VWS V14.01,2013-07-18 18:34:00,
2013-07-18 13:35:00,90.9,73.6,30.05,SSW,212,0.0,0.0,57,0.00,,CLR,0.00,VWS V14.01,2013-07-18 18:35:00,
2013-07-18 13:36:00,90.9,72.0,30.05,SSW,212,0.0,0.0,54,0.00,,CLR,0.00,VWS V14.01,2013-07-18 18:36:00,
2013-07-18 13:39:00,90.9,72.5,30.05,West,268,0.0,0.0,55,0.00,,CLR,0.00,VWS V14.01,2013-07-18 18:39:00,
2013-07-18 13:40:00,91.1,72.2,30.05,West,277,0.0,0.0,54,0.00,,CLR,0.00,VWS V14.01,2013-07-18 18:40:00,
2013-07-18 13:41:00,91.3,72.3,30.05,WNW,284,0.0,0.0,54,0.00,,CLR,0.00,VWS V14.01,2013-07-18 18:41:00,
2013-07-18 13:44:00,91.7,72.7,30.05,WNW,284,0.0,0.0,54,0.00,,CLR,0.00,VWS V14.01,2013-07-18 18:44:00,
2013-07-18 13:45:00,92.0,73.0,30.04,WNW,284,0.0,0.0,54,0.00,,CLR,0.00,VWS V14.01,2013-07-18 18:45:00,
2013-07-18 13:46:00,92.0,73.5,30.04,WNW,284,0.0,0.0,55,0.00,,CLR,0.00,VWS V14.01,2013-07-18 18:46:00,
2013-07-18 13:49:00,92.0,72.4,30.04,SSW,200,0.0,1.0,53,0.00,,CLR,0.00,VWS V14.01,2013-07-18 18:49:00,
2013-07-18 13:51:00,91.7,72.7,30.04,SSW,200,0.0,1.0,54,0.00,,CLR,0.00,VWS V14.01,2013-07-18 18:51:00,
2013-07-18 13:54:00,91.5,73.1,30.04,SSW,200,0.0,1.0,55,0.00,,CLR,0.00,VWS V14.01,2013-07-18 18:54:00,
2013-07-18 13:56:00,91.5,73.6,30.04,SSW,200,0.0,1.0,56,0.00,,CLR,0.00,VWS V14.01,2013-07-18 18:56:00,
2013-07-18 13:57:00,91.5,73.1,30.04,SSW,200,0.0,1.0,55,0.00,,CLR,0.00,VWS V14.01,2013-07-18 18:57:00,
2013-07-18 13:59:00,92.0,74.1,30.04,SSW,200,0.0,1.0,56,0.00,,CLR,0.00,VWS V14.01,2013-07-18 18:59:00,
2013-07-18 14:00:00,92.0,74.1,30.03,SSW,200,0.0,1.0,56,0.00,,CLR,0.00,VWS V14.01,2013-07-18 19:00:00,
2013-07-18 14:01:00,92.2,74.2,30.03,SSW,200,0.0,0.0,56,0.00,,SCT065,0.00,VWS V14.01,2013-07-18 19:01:00,
2013-07-18 14:02:00,92.2,73.7,30.03,SSW,200,0.0,0.0,55,0.00,,SCT065,0.00,VWS V14.01,2013-07-18 19:02:00,
2013-07-18 14:04:00,92.6,72.4,30.03,SSW,200,0.0,0.0,52,0.00,,SCT065,0.00,VWS V14.01,2013-07-18 19:04:00,
2013-07-18 14:05:00,92.6,72.4,30.03,SSW,200,0.0,0.0,52,0.00,,SCT065,0.00,VWS V14.01,2013-07-18 19:05:00,
2013-07-18 14:06:00,92.8,72.0,30.03,SSW,200,0.0,0.0,51,0.00,,SCT065,0.00,VWS V14.01,2013-07-18 19:06:00,
2013-07-18 14:07:00,92.8,71.4,30.03,SSW,200,0.0,0.0,50,0.00,,SCT065,0.00,VWS V14.01,2013-07-18 19:07:00,
2013-07-18 14:09:00,93.1,72.9,30.03,ESE,109,0.0,2.0,52,0.00,,SCT065,0.00,VWS V14.01,2013-07-18 19:09:00,
2013-07-18 14:10:00,92.8,72.6,30.03,ESE,115,1.0,2.0,52,0.00,,SCT065,0.00,VWS V14.01,2013-07-18 19:10:00,
2013-07-18 14:11:00,92.6,72.4,30.03,SE,129,0.0,2.0,52,0.00,,SCT065,0.00,VWS V14.01,2013-07-18 19:11:00,
2013-07-18 14:12:00,92.4,72.8,30.03,SE,126,0.0,2.0,53,0.00,,SCT065,0.00,VWS V14.01,2013-07-18 19:12:00,
2013-07-18 14:14:00,92.2,73.2,30.03,ESE,123,0.0,2.0,54,0.00,,SCT065,0.00,VWS V14.01,2013-07-18 19:14:00,
2013-07-18 14:15:00,92.2,75.3,30.02,ESE,123,0.0,2.0,58,0.00,,SCT065,0.00,VWS V14.01,2013-07-18 19:15:00,
2013-07-18 14:16:00,92.2,73.7,30.02,ESE,123,0.0,2.0,55,0.00,,SCT065,0.00,VWS V14.01,2013-07-18 19:16:00,
2013-07-18 14:17:00,92.4,73.3,30.02,ESE,123,0.0,2.0,54,0.00,,SCT065,0.00,VWS V14.01,2013-07-18 19:17:00,
2013-07-18 14:19:00,92.6,71.8,30.02,SSE,160,0.0,2.0,51,0.00,,SCT065,0.00,VWS V14.01,2013-07-18 19:19:00,
2013-07-18 14:20:00,92.6,72.4,30.02,SSE,160,0.0,2.0,52,0.00,,SCT065,0.00,VWS V14.01,2013-07-18 19:20:00,
2013-07-18 14:21:00,92.6,72.4,30.02,SSE,160,0.0,2.0,52,0.00,,SCT065,0.00,VWS V14.01,2013-07-18 19:21:00,
2013-07-18 14:22:00,92.6,72.4,30.02,SSE,160,0.0,2.0,52,0.00,,SCT065,0.00,VWS V14.01,2013-07-18 19:22:00,
2013-07-18 14:25:00,92.8,71.4,30.02,SSE,160,0.0,2.0,50,0.00,,SCT065,0.00,VWS V14.01,2013-07-18 19:25:00,
2013-07-18 14:26:00,92.8,71.4,30.02,SSE,160,0.0,2.0,50,0.00,,SCT065,0.00,VWS V14.01,2013-07-18 19:26:00,
2013-07-18 14:27:00,92.8,73.2,30.02,SSE,160,0.0,2.0,53,0.00,,SCT065,0.00,VWS V14.01,2013-07-18 19:27:00,
2013-07-18 14:30:00,92.8,73.2,30.01,SSE,161,0.0,2.0,53,0.00,,SCT065,0.00,VWS V14.01,2013-07-18 19:30:00,
2013-07-18 14:31:00,92.8,73.7,30.01,ESE,121,0.0,0.0,54,0.00,,SCT065,0.00,VWS V14.01,2013-07-18 19:31:00,
2013-07-18 14:32:00,92.8,72.6,30.01,ESE,114,0.0,0.0,52,0.00,,SCT065,0.00,VWS V14.01,2013-07-18 19:32:00,
2013-07-18 14:33:00,92.8,73.7,30.01,ESE,117,0.0,0.0,54,0.00,,SCT065,0.00,VWS V14.01,2013-07-18 19:33:00,
2013-07-18 14:35:00,92.6,72.4,30.01,ESE,117,0.0,0.0,52,0.00,,SCT065,0.00,VWS V14.01,2013-07-18 19:35:00,
2013-07-18 14:36:00,92.4,72.2,30.01,South,186,0.0,0.0,52,0.00,,SCT065,0.00,VWS V14.01,2013-07-18 19:36:00,
2013-07-18 14:37:00,92.2,71.5,30.01,South,173,0.0,0.0,51,0.00,,SCT065,0.00,VWS V14.01,2013-07-18 19:37:00,
2013-07-18 14:38:00,92.0,71.9,30.01,South,174,0.0,0.0,52,0.00,,SCT065,0.00,VWS V14.01,2013-07-18 19:38:00,
2013-07-18 14:40:00,91.7,72.2,30.01,South,184,0.0,1.0,53,0.00,,SCT065,0.00,VWS V14.01,2013-07-18 19:40:00,
2013-07-18 14:41:00,91.7,71.6,30.01,South,184,0.0,1.0,52,0.00,,SCT065,0.00,VWS V14.01,2013-07-18 19:41:00,
2013-07-18 14:42:00,91.5,72.5,30.01,South,184,0.0,1.0,54,0.00,,SCT065,0.00,VWS V14.01,2013-07-18 19:42:00,
2013-07-18 14:43:00,91.5,72.5,30.01,South,190,0.0,2.0,54,0.00,,SCT065,0.00,VWS V14.01,2013-07-18 19:43:00,
2013-07-18 14:45:00,91.5,72.0,30.01,South,184,0.0,2.0,53,0.00,,SCT065,0.00,VWS V14.01,2013-07-18 19:45:00,
2013-07-18 14:46:00,91.5,72.0,30.01,South,171,0.0,2.0,53,0.00,,SCT055,0.00,VWS V14.01,2013-07-18 19:46:00,
2013-07-18 14:47:00,91.5,72.0,30.01,South,171,0.0,2.0,53,0.00,,SCT055,0.00,VWS V14.01,2013-07-18 19:47:00,
2013-07-18 14:48:00,91.5,73.1,30.01,South,171,0.0,2.0,55,0.00,,SCT055,0.00,VWS V14.01,2013-07-18 19:48:00,
2013-07-18 14:50:00,91.7,72.7,30.01,South,171,0.0,2.0,54,0.00,,SCT055,0.00,VWS V14.01,2013-07-18 19:50:00,
2013-07-18 14:51:00,91.7,72.7,30.01,South,171,0.0,2.0,54,0.00,,SCT055,0.00,VWS V14.01,2013-07-18 19:51:00,
2013-07-18 14:52:00,91.7,72.7,30.01,South,171,0.0,2.0,54,0.00,,SCT055,0.00,VWS V14.01,2013-07-18 19:52:00,
2013-07-18 14:53:00,92.0,73.0,30.01,South,171,0.0,2.0,54,0.00,,SCT055,0.00,VWS V14.01,2013-07-18 19:53:00,
2013-07-18 14:55:00,92.2,73.2,30.01,South,173,0.0,2.0,54,0.00,,SCT055,0.00,VWS V14.01,2013-07-18 19:55:00,
2013-07-18 14:57:00,92.2,73.7,30.01,South,173,0.0,2.0,55,0.00,,SCT055,0.00,VWS V14.01,2013-07-18 19:57:00,
2013-07-18 14:58:00,92.4,73.9,30.01,South,173,0.0,2.0,55,0.00,,SCT055,0.00,VWS V14.01,2013-07-18 19:58:00,
2013-07-18 15:00:00,92.4,71.1,30.00,South,174,0.0,2.0,50,0.00,,SCT055,0.00,VWS V14.01,2013-07-18 20:00:00,
2013-07-18 15:02:00,92.4,73.3,30.00,South,177,0.0,0.0,54,0.00,,SCT065,0.00,VWS V14.01,2013-07-18 20:02:00,
2013-07-18 15:03:00,92.8,73.2,30.00,WSW,257,0.0,0.0,53,0.00,,SCT065,0.00,VWS V14.01,2013-07-18 20:03:00,
2013-07-18 15:05:00,93.1,71.7,30.00,West,261,0.0,0.0,50,0.00,,SCT065,0.00,VWS V14.01,2013-07-18 20:05:00,
2013-07-18 15:07:00,93.3,71.9,30.00,West,261,0.0,0.0,50,0.00,,SCT065,0.00,VWS V14.01,2013-07-18 20:07:00,
2013-07-18 15:09:00,93.3,73.1,30.00,West,259,0.0,0.0,52,0.00,,SCT065,0.00,VWS V14.01,2013-07-18 20:09:00,
2013-07-18 15:10:00,93.1,71.7,30.00,WSW,251,0.0,0.0,50,0.00,,SCT065,0.00,VWS V14.01,2013-07-18 20:10:00,
2013-07-18 15:12:00,93.1,71.7,30.00,South,179,0.0,0.0,50,0.00,,SCT065,0.00,VWS V14.01,2013-07-18 20:12:00,
2013-07-18 15:13:00,93.1,71.7,30.00,South,180,0.0,0.0,50,0.00,,SCT065,0.00,VWS V14.01,2013-07-18 20:13:00,
2013-07-18 15:14:00,93.1,71.7,30.00,South,180,0.0,0.0,50,0.00,,SCT065,0.00,VWS V14.01,2013-07-18 20:14:00,
2013-07-18 15:15:00,92.8,71.4,30.00,South,180,0.0,0.0,50,0.00,,SCT065,0.00,VWS V14.01,2013-07-18 20:15:00,
2013-07-18 15:17:00,92.6,71.8,30.00,South,180,0.0,0.0,51,0.00,,SCT065,0.00,VWS V14.01,2013-07-18 20:17:00,
2013-07-18 15:18:00,92.6,71.8,30.00,South,180,0.0,0.0,51,0.00,,SCT065,0.00,VWS V14.01,2013-07-18 20:18:00,
2013-07-18 15:19:00,92.6,71.8,30.00,South,180,0.0,0.0,51,0.00,,SCT065,0.00,VWS V14.01,2013-07-18 20:19:00,
2013-07-18 15:20:00,92.6,71.8,30.00,South,180,0.0,0.0,51,0.00,,SCT065,0.00,VWS V14.01,2013-07-18 20:20:00,
2013-07-18 15:23:00,92.4,71.7,30.00,South,182,0.0,5.0,51,0.00,,SCT065,0.00,VWS V14.01,2013-07-18 20:23:00,
2013-07-18 15:24:00,92.2,71.5,30.00,South,182,0.0,5.0,51,0.00,,SCT065,0.00,VWS V14.01,2013-07-18 20:24:00,
2013-07-18 15:26:00,92.0,71.3,30.00,South,175,0.0,5.0,51,0.00,,SCT065,0.00,VWS V14.01,2013-07-18 20:26:00,
2013-07-18 15:28:00,92.0,73.0,30.00,South,180,0.0,5.0,54,0.00,,SCT065,0.00,VWS V14.01,2013-07-18 20:28:00,
2013-07-18 15:29:00,92.0,73.0,30.00,South,180,0.0,5.0,54,0.00,,SCT065,0.00,VWS V14.01,2013-07-18 20:29:00,
2013-07-18 15:30:00,91.7,71.6,30.00,South,180,0.0,5.0,52,0.00,,,0.00,VWS V14.01,2013-07-18 20:30:00,
2013-07-18 15:31:00,91.7,71.6,30.00,South,178,0.0,0.0,52,0.00,,SCT065,0.00,VWS V14.01,2013-07-18 20:31:00,
2013-07-18 15:33:00,91.7,72.7,30.00,South,180,0.0,0.0,54,0.00,,SCT065,0.00,VWS V14.01,2013-07-18 20:33:00,
2013-07-18 15:34:00,91.7,71.6,30.00,South,180,0.0,0.0,52,0.00,,SCT065,0.00,VWS V14.01,2013-07-18 20:34:00,
2013-07-18 15:37:00,91.5,71.4,30.00,South,180,0.0,0.0,52,0.00,,SCT065,0.00,VWS V14.01,2013-07-18 20:37:00,
2013-07-18 15:38:00,91.5,70.8,30.00,South,180,0.0,0.0,51,0.00,,SCT065,0.00,VWS V14.01,2013-07-18 20:38:00,
2013-07-18 15:39:00,91.5,72.0,30.00,South,180,0.0,0.0,53,0.00,,SCT065,0.00,VWS V14.01,2013-07-18 20:39:00,
2013-07-18 15:42:00,91.7,71.0,30.00,South,180,0.0,0.0,51,0.00,,SCT065,0.00,VWS V14.01,2013-07-18 20:42:00,
2013-07-18 15:44:00,91.7,70.4,30.00,South,180,0.0,0.0,50,0.00,,SCT065,0.00,VWS V14.01,2013-07-18 20:44:00,
2013-07-18 15:45:00,91.7,71.0,29.99,South,180,0.0,0.0,51,0.00,,SCT065,0.00,VWS V14.01,2013-07-18 20:45:00,
2013-07-18 15:47:00,91.7,72.2,29.99,South,180,0.0,0.0,53,0.00,,SCT060,0.00,VWS V14.01,2013-07-18 20:47:00,
2013-07-18 15:49:00,91.7,71.0,29.99,South,180,0.0,0.0,51,0.00,,SCT060,0.00,VWS V14.01,2013-07-18 20:49:00,
2013-07-18 15:50:00,91.7,71.6,29.99,South,180,0.0,0.0,52,0.00,,SCT060,0.00,VWS V14.01,2013-07-18 20:50:00,
2013-07-18 15:52:00,91.7,71.6,29.99,South,180,0.0,0.0,52,0.00,,SCT060,0.00,VWS V14.01,2013-07-18 20:52:00,
2013-07-18 15:54:00,91.5,71.4,29.99,South,175,0.0,1.0,52,0.00,,SCT060,0.00,VWS V14.01,2013-07-18 20:54:00,
2013-07-18 15:55:00,91.5,71.4,29.99,South,175,0.0,1.0,52,0.00,,SCT060,0.00,VWS V14.01,2013-07-18 20:55:00,
2013-07-18 15:57:00,91.7,72.7,29.99,South,175,0.0,1.0,54,0.00,,SCT060,0.00,VWS V14.01,2013-07-18 20:57:00,
2013-07-18 15:59:00,91.7,70.4,29.99,South,175,0.0,1.0,50,0.00,,SCT060,0.00,VWS V14.01,2013-07-18 20:59:00,
2013-07-18 16:00:00,92.0,71.3,29.98,South,175,0.0,1.0,51,0.00,,SCT060,0.00,VWS V14.01,2013-07-18 21:00:00,
2013-07-18 16:02:00,92.2,71.5,29.98,South,174,0.0,0.0,51,0.00,,SCT065,0.00,VWS V14.01,2013-07-18 21:02:00,
2013-07-18 16:04:00,92.2,70.3,29.98,South,175,0.0,0.0,49,0.00,,SCT065,0.00,VWS V14.01,2013-07-18 21:04:00,
2013-07-18 16:05:00,92.0,70.1,29.98,South,176,0.0,0.0,49,0.00,,SCT065,0.00,VWS V14.01,2013-07-18 21:05:00,
2013-07-18 16:07:00,91.7,69.2,29.98,South,178,0.0,0.0,48,0.00,,SCT065,0.00,VWS V14.01,2013-07-18 21:07:00,
2013-07-18 16:09:00,92.0,72.4,29.98,South,178,0.0,0.0,53,0.00,,SCT065,0.00,VWS V14.01,2013-07-18 21:09:00,
2013-07-18 16:10:00,91.7,72.2,29.98,South,189,2.0,2.0,53,0.00,,SCT065,0.00,VWS V14.01,2013-07-18 21:10:00,
2013-07-18 16:12:00,91.7,72.2,29.98,SE,141,0.0,2.0,53,0.00,,SCT065,0.00,VWS V14.01,2013-07-18 21:12:00,
2013-07-18 16:14:00,91.7,71.6,29.98,SE,146,0.0,2.0,52,0.00,,SCT065,0.00,VWS V14.01,2013-07-18 21:14:00,
2013-07-18 16:15:00,92.0,71.9,29.98,SE,146,0.0,2.0,52,0.00,,SCT065,0.00,VWS V14.01,2013-07-18 21:15:00,
2013-07-18 16:16:00,92.0,71.9,29.98,SE,146,0.0,2.0,52,0.00,,SCT065,0.00,VWS V14.01,2013-07-18 21:16:00,
2013-07-18 16:17:00,92.0,71.3,29.98,SE,146,0.0,2.0,51,0.00,,SCT065,0.00,VWS V14.01,2013-07-18 21:17:00,
2013-07-18 16:20:00,92.2,71.5,29.98,SE,146,0.0,2.0,51,0.00,,SCT065,0.00,VWS V14.01,2013-07-18 21:20:00,
2013-07-18 16:21:00,92.2,72.1,29.98,SSE,148,0.0,2.0,52,0.00,,SCT065,0.00,VWS V14.01,2013-07-18 21:21:00,
2013-07-18 16:22:00,92.4,72.2,29.98,SSE,148,0.0,2.0,52,0.00,,SCT065,0.00,VWS V14.01,2013-07-18 21:22:00,
2013-07-18 16:25:00,92.8,72.6,29.98,SSE,148,0.0,2.0,52,0.00,,SCT065,0.00,VWS V14.01,2013-07-18 21:25:00,
2013-07-18 16:26:00,93.1,73.4,29.98,SSE,148,0.0,2.0,53,0.00,,SCT065,0.00,VWS V14.01,2013-07-18 21:26:00,
2013-07-18 16:27:00,93.1,72.9,29.98,SSE,165,0.0,2.0,52,0.00,,SCT065,0.00,VWS V14.01,2013-07-18 21:27:00,
2013-07-18 16:30:00,93.1,71.7,29.98,SSE,165,0.0,2.0,50,0.00,,SCT065,0.00,VWS V14.01,2013-07-18 21:30:00,
2013-07-18 16:31:00,92.8,71.4,29.98,SSE,165,0.0,0.0,50,0.00,,SCT065,0.00,VWS V14.01,2013-07-18 21:31:00,
2013-07-18 16:33:00,92.8,72.0,29.98,SSE,165,0.0,0.0,51,0.00,,SCT065,0.00,VWS V14.01,2013-07-18 21:33:00,
2013-07-18 16:35:00,92.8,71.4,29.98,SSE,165,0.0,0.0,50,0.00,,SCT065,0.00,VWS V14.01,2013-07-18 21:35:00,
2013-07-18 16:36:00,92.8,71.4,29.98,SSE,165,0.0,0.0,50,0.00,,SCT065,0.00,VWS V14.01,2013-07-18 21:36:00,
2013-07-18 16:38:00,93.1,71.7,29.98,SSE,165,0.0,0.0,50,0.00,,SCT065,0.00,VWS V14.01,2013-07-18 21:38:00,
2013-07-18 16:40:00,93.3,73.6,29.98,SSE,165,0.0,0.0,53,0.00,,SCT065,0.00,VWS V14.01,2013-07-18 21:40:00,
2013-07-18 16:41:00,93.3,73.6,29.98,SSE,165,0.0,0.0,53,0.00,,SCT065,0.00,VWS V14.01,2013-07-18 21:41:00,
2013-07-18 16:42:00,93.3,72.5,29.98,SSE,165,0.0,0.0,51,0.00,,SCT065,0.00,VWS V14.01,2013-07-18 21:42:00,
2013-07-18 16:43:00,93.5,73.2,29.98,SSE,165,0.0,0.0,52,0.00,,SCT065,0.00,VWS V14.01,2013-07-18 21:43:00,
2013-07-18 16:45:00,93.9,72.4,29.97,SSE,165,0.0,0.0,50,0.00,,SCT120,0.00,VWS V14.01,2013-07-18 21:45:00,
2013-07-18 16:46:00,93.9,72.4,29.97,SSE,165,0.0,0.0,50,0.00,,SCT120,0.00,VWS V14.01,2013-07-18 21:46:00,
2013-07-18 16:47:00,93.9,71.8,29.97,SSE,165,0.0,0.0,49,0.00,,SCT120,0.00,VWS V14.01,2013-07-18 21:47:00,
2013-07-18 16:48:00,93.9,71.8,29.97,SSE,165,0.0,0.0,49,0.00,,SCT120,0.00,VWS V14.01,2013-07-18 21:48:00,
2013-07-18 16:50:00,94.2,72.1,29.97,SSE,165,0.0,0.0,49,0.00,,SCT120,0.00,VWS V14.01,2013-07-18 21:50:00,
2013-07-18 16:51:00,93.9,71.2,29.97,SSE,165,0.0,0.0,48,0.00,,SCT120,0.00,VWS V14.01,2013-07-18 21:51:00,
2013-07-18 16:52:00,93.7,72.3,29.97,SSE,167,0.0,0.0,50,0.00,,SCT120,0.00,VWS V14.01,2013-07-18 21:52:00,
2013-07-18 16:54:00,93.3,72.5,29.97,SSE,167,0.0,0.0,51,0.00,,SCT120,0.00,VWS V14.01,2013-07-18 21:54:00,
2013-07-18 16:55:00,92.8,72.0,29.97,South,173,0.0,0.0,51,0.00,,SCT120,0.00,VWS V14.01,2013-07-18 21:55:00,
2013-07-18 16:56:00,92.8,72.0,29.97,South,173,0.0,0.0,51,0.00,,SCT120,0.00,VWS V14.01,2013-07-18 21:56:00,
2013-07-18 16:57:00,92.6,72.4,29.97,South,173,0.0,0.0,52,0.00,,SCT120,0.00,VWS V14.01,2013-07-18 21:57:00,
2013-07-18 16:59:00,92.4,73.3,29.97,South,173,0.0,0.0,54,0.00,,SCT120,0.00,VWS V14.01,2013-07-18 21:59:00,
2013-07-18 17:00:00,92.2,72.6,29.97,South,173,0.0,0.0,53,0.00,,SCT120,0.00,VWS V14.01,2013-07-18 22:00:00,
2013-07-18 17:01:00,92.2,72.6,29.97,South,173,0.0,0.0,53,0.00,,SCT120,0.00,VWS V14.01,2013-07-18 22:01:00,
2013-07-18 17:02:00,92.2,72.6,29.97,South,173,0.0,0.0,53,0.00,,SCT120,0.00,VWS V14.01,2013-07-18 22:02:00,
2013-07-18 17:05:00,92.4,72.8,29.97,South,173,0.0,0.0,53,0.00,,SCT120,0.00,VWS V14.01,2013-07-18 22:05:00,
2013-07-18 17:06:00,92.4,72.8,29.97,South,173,0.0,0.0,53,0.00,,SCT120,0.00,VWS V14.01,2013-07-18 22:06:00,
2013-07-18 17:07:00,92.6,73.0,29.97,South,173,0.0,0.0,53,0.00,,SCT120,0.00,VWS V14.01,2013-07-18 22:07:00,
2013-07-18 17:08:00,92.8,74.3,29.97,South,173,0.0,0.0,55,0.00,,SCT120,0.00,VWS V14.01,2013-07-18 22:08:00,
2013-07-18 17:10:00,92.4,72.8,29.97,South,180,0.0,0.0,53,0.00,,SCT120,0.00,VWS V14.01,2013-07-18 22:10:00,
2013-07-18 17:11:00,92.4,72.8,29.97,South,180,0.0,0.0,53,0.00,,SCT120,0.00,VWS V14.01,2013-07-18 22:11:00,
2013-07-18 17:12:00,92.2,72.6,29.97,South,184,0.0,0.0,53,0.00,,SCT120,0.00,VWS V14.01,2013-07-18 22:12:00,
2013-07-18 17:13:00,92.0,71.9,29.97,South,184,1.0,1.0,52,0.00,,SCT120,0.00,VWS V14.01,2013-07-18 22:13:00,
2013-07-18 17:15:00,91.7,72.2,29.97,SSW,194,2.0,3.0,53,0.00,,SCT120,0.00,VWS V14.01,2013-07-18 22:15:00,
2013-07-18 17:16:00,91.5,72.0,29.97,SSW,194,1.0,3.0,53,0.00,,SCT120,0.00,VWS V14.01,2013-07-18 22:16:00,
2013-07-18 17:17:00,91.3,72.3,29.97,South,190,0.0,3.0,54,0.00,,SCT120,0.00,VWS V14.01,2013-07-18 22:17:00,
2013-07-18 17:18:00,91.3,72.3,29.97,South,189,0.0,3.0,54,0.00,,SCT120,0.00,VWS V14.01,2013-07-18 22:18:00,
2013-07-18 17:20:00,91.1,72.2,29.97,South,190,0.0,3.0,54,0.00,,SCT120,0.00,VWS V14.01,2013-07-18 22:20:00,
2013-07-18 17:21:00,91.1,72.2,29.97,South,190,0.0,3.0,54,0.00,,SCT120,0.00,VWS V14.01,2013-07-18 22:21:00,
2013-07-18 17:22:00,91.1,72.7,29.97,South,190,0.0,3.0,55,0.00,,SCT120,0.00,VWS V14.01,2013-07-18 22:22:00,
2013-07-18 17:23:00,91.1,73.2,29.97,South,190,0.0,3.0,56,0.00,,SCT120,0.00,VWS V14.01,2013-07-18 22:23:00,
2013-07-18 17:26:00,91.1,72.2,29.97,South,190,0.0,3.0,54,0.00,,SCT120,0.00,VWS V14.01,2013-07-18 22:26:00,
2013-07-18 17:27:00,91.1,73.2,29.97,SSW,192,0.0,3.0,56,0.00,,SCT120,0.00,VWS V14.01,2013-07-18 22:27:00,
2013-07-18 17:28:00,90.9,72.5,29.97,SSW,192,0.0,3.0,55,0.00,,SCT120,0.00,VWS V14.01,2013-07-18 22:28:00,
2013-07-18 17:30:00,90.9,72.5,29.97,South,191,0.0,3.0,55,0.00,,,0.00,VWS V14.01,2013-07-18 22:30:00,
2013-07-18 17:31:00,90.9,72.5,29.97,South,191,0.0,0.0,55,0.00,,SCT120,0.00,VWS V14.01,2013-07-18 22:31:00,
2013-07-18 17:32:00,90.9,72.5,29.97,South,191,0.0,0.0,55,0.00,,SCT120,0.00,VWS V14.01,2013-07-18 22:32:00,
2013-07-18 17:33:00,90.9,72.0,29.97,South,191,0.0,0.0,54,0.00,,SCT120,0.00,VWS V14.01,2013-07-18 22:33:00,
2013-07-18 17:36:00,90.9,73.6,29.97,SSW,193,0.0,0.0,57,0.00,,SCT120,0.00,VWS V14.01,2013-07-18 22:36:00,
2013-07-18 17:37:00,90.9,73.6,29.97,SSW,194,0.0,2.0,57,0.00,,SCT120,0.00,VWS V14.01,2013-07-18 22:37:00,
2013-07-18 17:38:00,90.6,73.3,29.97,SSW,194,0.0,2.0,57,0.00,,SCT120,0.00,VWS V14.01,2013-07-18 22:38:00,
2013-07-18 17:41:00,90.4,74.1,29.97,SSW,196,0.0,2.0,59,0.00,,SCT120,0.00,VWS V14.01,2013-07-18 22:41:00,
2013-07-18 17:42:00,90.4,74.6,29.97,SSW,192,0.0,2.0,60,0.00,,SCT120,0.00,VWS V14.01,2013-07-18 22:42:00,
2013-07-18 17:43:00,90.2,74.4,29.97,SSW,196,0.0,2.0,60,0.00,,SCT120,0.00,VWS V14.01,2013-07-18 22:43:00,
2013-07-18 17:46:00,90.2,73.9,29.97,SSW,196,0.0,2.0,59,0.00,,CLR,0.00,VWS V14.01,2013-07-18 22:46:00,
2013-07-18 17:47:00,90.2,73.9,29.97,SSW,196,0.0,2.0,59,0.00,,CLR,0.00,VWS V14.01,2013-07-18 22:47:00,
2013-07-18 17:48:00,90.0,72.2,29.97,SSW,196,0.0,2.0,56,0.00,,CLR,0.00,VWS V14.01,2013-07-18 22:48:00,
2013-07-18 17:52:00,90.0,71.7,29.97,SSW,196,0.0,2.0,55,0.00,,CLR,0.00,VWS V14.01,2013-07-18 22:52:00,
2013-07-18 17:53:00,90.0,72.2,29.97,SSW,196,0.0,2.0,56,0.00,,CLR,0.00,VWS V14.01,2013-07-18 22:53:00,
2013-07-18 17:57:00,90.0,72.7,29.97,SSW,196,0.0,2.0,57,0.00,,CLR,0.00,VWS V14.01,2013-07-18 22:57:00,
2013-07-18 17:58:00,90.0,73.2,29.97,SSW,196,0.0,2.0,58,0.00,,CLR,0.00,VWS V14.01,2013-07-18 22:58:00,
2013-07-18 17:59:00,90.0,73.2,29.97,SSW,196,0.0,2.0,58,0.00,,CLR,0.00,VWS V14.01,2013-07-18 22:59:00,
2013-07-18 18:00:00,90.2,73.9,29.96,SSW,196,0.0,2.0,59,0.00,,,0.00,VWS V14.01,2013-07-18 23:00:00,
2013-07-18 18:02:00,90.2,73.9,29.96,SSW,196,0.0,0.0,59,0.00,,CLR,0.00,VWS V14.01,2013-07-18 23:02:00,
2013-07-18 18:03:00,90.2,73.9,29.96,SSW,196,0.0,0.0,59,0.00,,CLR,0.00,VWS V14.01,2013-07-18 23:03:00,
2013-07-18 18:04:00,90.2,72.9,29.96,SSW,196,0.0,0.0,57,0.00,,CLR,0.00,VWS V14.01,2013-07-18 23:04:00,
2013-07-18 18:07:00,90.2,72.9,29.96,SSW,196,0.0,0.0,57,0.00,,CLR,0.00,VWS V14.01,2013-07-18 23:07:00,
2013-07-18 18:08:00,90.2,72.9,29.96,SSW,196,0.0,0.0,57,0.00,,CLR,0.00,VWS V14.01,2013-07-18 23:08:00,
2013-07-18 18:09:00,90.4,73.6,29.96,SSW,196,0.0,0.0,58,0.00,,CLR,0.00,VWS V14.01,2013-07-18 23:09:00,
2013-07-18 18:12:00,90.4,74.1,29.96,SSW,196,0.0,0.0,59,0.00,,CLR,0.00,VWS V14.01,2013-07-18 23:12:00,
2013-07-18 18:13:00,90.4,74.1,29.96,SSW,196,0.0,0.0,59,0.00,,CLR,0.00,VWS V14.01,2013-07-18 23:13:00,
2013-07-18 18:14:00,90.4,74.6,29.96,SSW,196,0.0,0.0,60,0.00,,CLR,0.00,VWS V14.01,2013-07-18 23:14:00,
2013-07-18 18:17:00,90.2,74.4,29.95,SSW,196,0.0,0.0,60,0.00,,CLR,0.00,VWS V14.01,2013-07-18 23:17:00,
2013-07-18 18:18:00,90.2,74.4,29.95,SSW,196,0.0,0.0,60,0.00,,CLR,0.00,VWS V14.01,2013-07-18 23:18:00,
2013-07-18 18:19:00,90.2,74.4,29.95,SSW,196,0.0,0.0,60,0.00,,CLR,0.00,VWS V14.01,2013-07-18 23:19:00,
2013-07-18 18:22:00,90.0,73.8,29.95,SSW,196,0.0,0.0,59,0.00,,CLR,0.00,VWS V14.01,2013-07-18 23:22:00,
2013-07-18 18:23:00,90.0,73.8,29.95,SSW,196,0.0,0.0,59,0.00,,CLR,0.00,VWS V14.01,2013-07-18 23:23:00,
2013-07-18 18:24:00,90.0,74.3,29.95,SSW,196,0.0,0.0,60,0.00,,CLR,0.00,VWS V14.01,2013-07-18 23:24:00,
2013-07-18 18:28:00,89.8,74.6,29.95,SSW,196,0.0,0.0,61,0.00,,CLR,0.00,VWS V14.01,2013-07-18 23:28:00,
2013-07-18 18:29:00,89.8,74.6,29.95,SSW,196,0.0,0.0,61,0.00,,CLR,0.00,VWS V14.01,2013-07-18 23:29:00,
2013-07-18 18:30:00,89.6,74.4,29.95,South,188,0.0,0.0,61,0.00,,,0.00,VWS V14.01,2013-07-18 23:30:00,
2013-07-18 18:33:00,89.6,74.4,29.95,South,188,0.0,0.0,61,0.00,,CLR,0.00,VWS V14.01,2013-07-18 23:33:00,
2013-07-18 18:34:00,89.4,74.2,29.95,South,188,0.0,0.0,61,0.00,,CLR,0.00,VWS V14.01,2013-07-18 23:34:00,
2013-07-18 18:38:00,89.4,74.7,29.95,South,188,0.0,0.0,62,0.00,,CLR,0.00,VWS V14.01,2013-07-18 23:38:00,
2013-07-18 18:39:00,89.4,74.7,29.95,South,188,0.0,0.0,62,0.00,,CLR,0.00,VWS V14.01,2013-07-18 23:39:00,
2013-07-18 18:40:00,89.4,74.7,29.95,South,188,0.0,0.0,62,0.00,,CLR,0.00,VWS V14.01,2013-07-18 23:40:00,
2013-07-18 18:43:00,89.2,74.5,29.95,South,188,0.0,0.0,62,0.00,,CLR,0.00,VWS V14.01,2013-07-18 23:43:00,
2013-07-18 18:44:00,89.2,74.5,29.95,South,188,0.0,0.0,62,0.00,,CLR,0.00,VWS V14.01,2013-07-18 23:44:00,
2013-07-18 18:45:00,89.2,75.0,29.95,South,188,0.0,0.0,63,0.00,,CLR,0.00,VWS V14.01,2013-07-18 23:45:00,
2013-07-18 18:48:00,89.2,74.5,29.95,South,188,0.0,0.0,62,0.00,,CLR,0.00,VWS V14.01,2013-07-18 23:48:00,
2013-07-18 18:49:00,89.2,74.5,29.95,South,188,0.0,0.0,62,0.00,,CLR,0.00,VWS V14.01,2013-07-18 23:49:00,
2013-07-18 18:50:00,89.2,74.5,29.95,South,188,0.0,0.0,62,0.00,,CLR,0.00,VWS V14.01,2013-07-18 23:50:00,
2013-07-18 18:53:00,89.2,74.5,29.95,South,188,0.0,0.0,62,0.00,,CLR,0.00,VWS V14.01,2013-07-18 23:53:00,
2013-07-18 18:54:00,89.2,74.5,29.95,South,188,0.0,0.0,62,0.00,,CLR,0.00,VWS V14.01,2013-07-18 23:54:00,
2013-07-18 18:55:00,89.2,74.0,29.95,South,188,0.0,0.0,61,0.00,,CLR,0.00,VWS V14.01,2013-07-18 23:55:00,
2013-07-18 18:58:00,89.2,74.5,29.95,South,188,0.0,0.0,62,0.00,,CLR,0.00,VWS V14.01,2013-07-18 23:58:00,
2013-07-18 18:59:00,89.2,74.5,29.95,South,188,0.0,0.0,62,0.00,,CLR,0.00,VWS V14.01,2013-07-18 23:59:00,
2013-07-18 19:00:00,88.9,74.2,29.95,South,188,0.0,0.0,62,0.00,,CLR,0.00,VWS V14.01,2013-07-19 00:00:00,
2013-07-18 19:03:00,88.9,74.2,29.95,South,188,0.0,0.0,62,0.00,,CLR,0.00,VWS V14.01,2013-07-19 00:03:00,
2013-07-18 19:04:00,88.9,74.2,29.95,South,188,0.0,0.0,62,0.00,,CLR,0.00,VWS V14.01,2013-07-19 00:04:00,
2013-07-18 19:05:00,88.9,74.7,29.95,South,188,0.0,0.0,63,0.00,,CLR,0.00,VWS V14.01,2013-07-19 00:05:00,
2013-07-18 19:09:00,88.9,75.2,29.95,South,188,0.0,0.0,64,0.00,,CLR,0.00,VWS V14.01,2013-07-19 00:09:00,
2013-07-18 19:10:00,88.7,75.0,29.95,South,188,0.0,0.0,64,0.00,,CLR,0.00,VWS V14.01,2013-07-19 00:10:00,
2013-07-18 19:14:00,88.7,75.4,29.95,South,188,0.0,0.0,65,0.00,,CLR,0.00,VWS V14.01,2013-07-19 00:14:00,
2013-07-18 19:15:00,88.7,75.4,29.95,South,188,0.0,0.0,65,0.00,,CLR,0.00,VWS V14.01,2013-07-19 00:15:00,
2013-07-18 19:16:00,88.7,75.4,29.95,South,188,0.0,0.0,65,0.00,,CLR,0.00,VWS V14.01,2013-07-19 00:16:00,
2013-07-18 19:19:00,88.7,75.4,29.95,South,188,0.0,0.0,65,0.00,,CLR,0.00,VWS V14.01,2013-07-19 00:19:00,
2013-07-18 19:20:00,88.7,75.4,29.95,South,188,0.0,0.0,65,0.00,,CLR,0.00,VWS V14.01,2013-07-19 00:20:00,
2013-07-18 19:21:00,88.7,75.4,29.95,South,188,0.0,0.0,65,0.00,,CLR,0.00,VWS V14.01,2013-07-19 00:21:00,
2013-07-18 19:24:00,88.5,75.2,29.95,South,188,0.0,0.0,65,0.00,,CLR,0.00,VWS V14.01,2013-07-19 00:24:00,
2013-07-18 19:25:00,88.5,75.2,29.95,South,188,0.0,0.0,65,0.00,,CLR,0.00,VWS V14.01,2013-07-19 00:25:00,
2013-07-18 19:26:00,88.5,75.2,29.95,South,188,0.0,0.0,65,0.00,,CLR,0.00,VWS V14.01,2013-07-19 00:26:00,
2013-07-18 19:29:00,88.3,75.1,29.95,South,188,0.0,0.0,65,0.00,,CLR,0.00,VWS V14.01,2013-07-19 00:29:00,
2013-07-18 19:30:00,88.3,75.1,29.95,South,188,0.0,0.0,65,0.00,,CLR,0.00,VWS V14.01,2013-07-19 00:30:00,
2013-07-18 19:31:00,88.3,75.1,29.95,South,188,0.0,0.0,65,0.00,,CLR,0.00,VWS V14.01,2013-07-19 00:31:00,
2013-07-18 19:34:00,88.3,76.0,29.95,South,188,0.0,0.0,67,0.00,,CLR,0.00,VWS V14.01,2013-07-19 00:34:00,
2013-07-18 19:35:00,88.3,76.0,29.95,South,188,0.0,0.0,67,0.00,,CLR,0.00,VWS V14.01,2013-07-19 00:35:00,
2013-07-18 19:36:00,88.3,76.0,29.95,South,188,0.0,0.0,67,0.00,,CLR,0.00,VWS V14.01,2013-07-19 00:36:00,
2013-07-18 19:39:00,88.1,75.8,29.95,South,188,0.0,0.0,67,0.00,,CLR,0.00,VWS V14.01,2013-07-19 00:39:00,
2013-07-18 19:40:00,88.1,75.8,29.95,South,188,0.0,0.0,67,0.00,,CLR,0.00,VWS V14.01,2013-07-19 00:40:00,
2013-07-18 19:41:00,88.1,75.8,29.95,South,188,0.0,0.0,67,0.00,,CLR,0.00,VWS V14.01,2013-07-19 00:41:00,
2013-07-18 19:45:00,87.9,75.6,29.95,South,188,0.0,0.0,67,0.00,,CLR,0.00,VWS V14.01,2013-07-19 00:45:00,
2013-07-18 19:46:00,87.9,75.6,29.95,South,188,0.0,0.0,67,0.00,,CLR,0.00,VWS V14.01,2013-07-19 00:46:00,
2013-07-18 19:50:00,87.7,75.4,29.95,South,188,0.0,0.0,67,0.00,,CLR,0.00,VWS V14.01,2013-07-19 00:50:00,
2013-07-18 19:51:00,87.5,75.2,29.95,South,188,0.0,0.0,67,0.00,,CLR,0.00,VWS V14.01,2013-07-19 00:51:00,
2013-07-18 19:52:00,87.5,75.6,29.95,South,188,0.0,0.0,68,0.00,,CLR,0.00,VWS V14.01,2013-07-19 00:52:00,
2013-07-18 19:55:00,87.3,75.4,29.95,South,188,0.0,0.0,68,0.00,,CLR,0.00,VWS V14.01,2013-07-19 00:55:00,
2013-07-18 19:56:00,87.3,75.4,29.95,South,188,0.0,0.0,68,0.00,,CLR,0.00,VWS V14.01,2013-07-19 00:56:00,
2013-07-18 19:57:00,87.3,75.4,29.95,South,188,0.0,0.0,68,0.00,,CLR,0.00,VWS V14.01,2013-07-19 00:57:00,
2013-07-18 20:00:00,87.1,75.7,29.95,South,188,0.0,0.0,69,0.00,,CLR,0.00,VWS V14.01,2013-07-19 01:00:00,
2013-07-18 20:01:00,87.1,75.7,29.95,South,188,0.0,0.0,69,0.00,,CLR,0.00,VWS V14.01,2013-07-19 01:01:00,
2013-07-18 20:02:00,87.1,75.7,29.95,South,188,0.0,0.0,69,0.00,,CLR,0.00,VWS V14.01,2013-07-19 01:02:00,
2013-07-18 20:06:00,86.9,75.5,29.95,South,188,0.0,0.0,69,0.00,,CLR,0.00,VWS V14.01,2013-07-19 01:06:00,
2013-07-18 20:07:00,86.9,75.9,29.95,South,188,0.0,0.0,70,0.00,,CLR,0.00,VWS V14.01,2013-07-19 01:07:00,
2013-07-18 20:11:00,86.4,75.5,29.95,South,188,0.0,0.0,70,0.00,,CLR,0.00,VWS V14.01,2013-07-19 01:11:00,
2013-07-18 20:12:00,86.4,75.9,29.95,South,188,0.0,0.0,71,0.00,,CLR,0.00,VWS V14.01,2013-07-19 01:12:00,
2013-07-18 20:16:00,86.2,75.7,29.95,South,188,0.0,0.0,71,0.00,,CLR,0.00,VWS V14.01,2013-07-19 01:16:00,
2013-07-18 20:17:00,86.2,75.7,29.95,South,188,0.0,0.0,71,0.00,,CLR,0.00,VWS V14.01,2013-07-19 01:17:00,
2013-07-18 20:21:00,86.0,75.5,29.95,South,188,0.0,0.0,71,0.00,,CLR,0.00,VWS V14.01,2013-07-19 01:21:00,
2013-07-18 20:22:00,86.0,75.5,29.95,South,188,0.0,0.0,71,0.00,,CLR,0.00,VWS V14.01,2013-07-19 01:22:00,
2013-07-18 20:23:00,85.8,75.3,29.95,South,188,0.0,0.0,71,0.00,,CLR,0.00,VWS V14.01,2013-07-19 01:23:00,
2013-07-18 20:26:00,85.6,75.1,29.95,South,188,0.0,0.0,71,0.00,,CLR,0.00,VWS V14.01,2013-07-19 01:26:00,
2013-07-18 20:27:00,85.6,75.1,29.95,South,188,0.0,0.0,71,0.00,,CLR,0.00,VWS V14.01,2013-07-19 01:27:00,
2013-07-18 20:28:00,85.6,75.1,29.95,South,188,0.0,0.0,71,0.00,,CLR,0.00,VWS V14.01,2013-07-19 01:28:00,
2013-07-18 20:30:00,85.4,74.9,29.95,South,188,0.0,0.0,71,0.00,,,0.00,VWS V14.01,2013-07-19 01:30:00,
2013-07-18 20:31:00,85.4,74.9,29.95,South,188,0.0,0.0,71,0.00,,CLR,0.00,VWS V14.01,2013-07-19 01:31:00,
2013-07-18 20:32:00,85.4,74.9,29.95,South,188,0.0,0.0,71,0.00,,CLR,0.00,VWS V14.01,2013-07-19 01:32:00,
2013-07-18 20:33:00,85.4,74.9,29.95,South,188,0.0,0.0,71,0.00,,CLR,0.00,VWS V14.01,2013-07-19 01:33:00,
2013-07-18 20:36:00,85.2,75.2,29.95,South,188,0.0,0.0,72,0.00,,CLR,0.00,VWS V14.01,2013-07-19 01:36:00,
2013-07-18 20:37:00,85.2,75.2,29.95,South,188,0.0,0.0,72,0.00,,CLR,0.00,VWS V14.01,2013-07-19 01:37:00,
2013-07-18 20:38:00,85.2,75.2,29.95,South,188,0.0,0.0,72,0.00,,CLR,0.00,VWS V14.01,2013-07-19 01:38:00,
2013-07-18 20:41:00,85.0,75.0,29.95,South,188,0.0,0.0,72,0.00,,CLR,0.00,VWS V14.01,2013-07-19 01:41:00,
2013-07-18 20:42:00,85.0,75.0,29.95,South,188,0.0,0.0,72,0.00,,CLR,0.00,VWS V14.01,2013-07-19 01:42:00,
2013-07-18 20:43:00,84.8,74.8,29.95,South,188,0.0,0.0,72,0.00,,CLR,0.00,VWS V14.01,2013-07-19 01:43:00,
2013-07-18 20:46:00,84.8,74.8,29.95,South,188,0.0,0.0,72,0.00,,CLR,0.00,VWS V14.01,2013-07-19 01:46:00,
2013-07-18 20:47:00,84.6,75.0,29.95,South,188,0.0,0.0,73,0.00,,CLR,0.00,VWS V14.01,2013-07-19 01:47:00,
2013-07-18 20:48:00,84.6,75.0,29.95,South,188,0.0,0.0,73,0.00,,CLR,0.00,VWS V14.01,2013-07-19 01:48:00,
2013-07-18 20:51:00,84.4,74.4,29.95,South,188,0.0,0.0,72,0.00,,CLR,0.00,VWS V14.01,2013-07-19 01:51:00,
2013-07-18 20:52:00,84.4,74.4,29.95,South,188,0.0,0.0,72,0.00,,CLR,0.00,VWS V14.01,2013-07-19 01:52:00,
2013-07-18 20:53:00,84.4,74.4,29.95,South,188,0.0,0.0,72,0.00,,CLR,0.00,VWS V14.01,2013-07-19 01:53:00,
2013-07-18 20:54:00,84.4,74.4,29.95,South,188,0.0,0.0,72,0.00,,CLR,0.00,VWS V14.01,2013-07-19 01:54:00,
2013-07-18 20:56:00,84.4,74.4,29.95,South,188,0.0,0.0,72,0.00,,CLR,0.00,VWS V14.01,2013-07-19 01:56:00,
2013-07-18 20:58:00,84.4,74.4,29.95,South,188,0.0,0.0,72,0.00,,CLR,0.00,VWS V14.01,2013-07-19 01:58:00,
2013-07-18 20:59:00,84.4,74.4,29.95,South,188,0.0,0.0,72,0.00,,CLR,0.00,VWS V14.01,2013-07-19 01:59:00,
2013-07-18 21:00:00,84.4,74.4,29.95,South,188,0.0,0.0,72,0.00,,,0.00,VWS V14.01,2013-07-19 02:00:00,
2013-07-18 21:02:00,84.4,74.4,29.95,South,188,0.0,0.0,72,0.00,,CLR,0.00,VWS V14.01,2013-07-19 02:02:00,
2013-07-18 21:03:00,84.4,74.8,29.95,South,188,0.0,0.0,73,0.00,,CLR,0.00,VWS V14.01,2013-07-19 02:03:00,
2013-07-18 21:04:00,84.4,74.8,29.95,South,188,0.0,0.0,73,0.00,,CLR,0.00,VWS V14.01,2013-07-19 02:04:00,
2013-07-18 21:07:00,84.2,74.6,29.95,South,188,0.0,0.0,73,0.00,,CLR,0.00,VWS V14.01,2013-07-19 02:07:00,
2013-07-18 21:08:00,84.2,74.6,29.95,South,188,0.0,0.0,73,0.00,,CLR,0.00,VWS V14.01,2013-07-19 02:08:00,
2013-07-18 21:09:00,84.2,74.2,29.95,South,188,0.0,0.0,72,0.00,,CLR,0.00,VWS V14.01,2013-07-19 02:09:00,
2013-07-18 21:12:00,84.0,74.4,29.95,South,188,0.0,0.0,73,0.00,,CLR,0.00,VWS V14.01,2013-07-19 02:12:00,
2013-07-18 21:13:00,84.0,74.0,29.95,South,188,0.0,0.0,72,0.00,,CLR,0.00,VWS V14.01,2013-07-19 02:13:00,
2013-07-18 21:14:00,84.0,74.0,29.95,South,188,0.0,0.0,72,0.00,,CLR,0.00,VWS V14.01,2013-07-19 02:14:00,
2013-07-18 21:17:00,83.9,73.9,29.95,South,188,0.0,0.0,72,0.00,,CLR,0.00,VWS V14.01,2013-07-19 02:17:00,
2013-07-18 21:18:00,83.9,73.9,29.95,South,188,0.0,0.0,72,0.00,,CLR,0.00,VWS V14.01,2013-07-19 02:18:00,
2013-07-18 21:19:00,83.9,73.9,29.95,South,188,0.0,0.0,72,0.00,,CLR,0.00,VWS V14.01,2013-07-19 02:19:00,
2013-07-18 21:22:00,83.9,73.9,29.95,South,188,0.0,0.0,72,0.00,,CLR,0.00,VWS V14.01,2013-07-19 02:22:00,
2013-07-18 21:23:00,83.9,73.9,29.95,South,188,0.0,0.0,72,0.00,,CLR,0.00,VWS V14.01,2013-07-19 02:23:00,
2013-07-18 21:24:00,83.9,73.9,29.95,South,188,0.0,0.0,72,0.00,,CLR,0.00,VWS V14.01,2013-07-19 02:24:00,
2013-07-18 21:27:00,83.9,73.5,29.95,South,188,0.0,0.0,71,0.00,,CLR,0.00,VWS V14.01,2013-07-19 02:27:00,
2013-07-18 21:28:00,83.9,73.9,29.95,South,188,0.0,0.0,72,0.00,,CLR,0.00,VWS V14.01,2013-07-19 02:28:00,
2013-07-18 21:29:00,83.9,73.5,29.95,South,188,0.0,0.0,71,0.00,,CLR,0.00,VWS V14.01,2013-07-19 02:29:00,
2013-07-18 21:30:00,83.9,73.9,29.95,South,188,0.0,0.0,72,0.00,,,0.00,VWS V14.01,2013-07-19 02:30:00,
2013-07-18 21:32:00,83.9,73.9,29.95,South,188,0.0,0.0,72,0.00,,CLR,0.00,VWS V14.01,2013-07-19 02:32:00,
2013-07-18 21:33:00,83.9,73.9,29.95,South,188,0.0,0.0,72,0.00,,CLR,0.00,VWS V14.01,2013-07-19 02:33:00,
2013-07-18 21:34:00,83.9,73.9,29.95,South,188,0.0,0.0,72,0.00,,CLR,0.00,VWS V14.01,2013-07-19 02:34:00,
2013-07-18 21:35:00,83.7,73.7,29.95,South,188,0.0,0.0,72,0.00,,CLR,0.00,VWS V14.01,2013-07-19 02:35:00,
2013-07-18 21:37:00,83.7,73.7,29.95,South,188,0.0,0.0,72,0.00,,CLR,0.00,VWS V14.01,2013-07-19 02:37:00,
2013-07-18 21:38:00,83.7,73.7,29.95,South,188,0.0,0.0,72,0.00,,CLR,0.00,VWS V14.01,2013-07-19 02:38:00,
2013-07-18 21:39:00,83.7,73.7,29.95,South,188,0.0,0.0,72,0.00,,CLR,0.00,VWS V14.01,2013-07-19 02:39:00,
2013-07-18 21:40:00,83.7,73.7,29.95,South,188,0.0,0.0,72,0.00,,CLR,0.00,VWS V14.01,2013-07-19 02:40:00,
2013-07-18 21:42:00,83.5,73.5,29.95,South,188,0.0,0.0,72,0.00,,CLR,0.00,VWS V14.01,2013-07-19 02:42:00,
2013-07-18 21:43:00,83.5,73.5,29.95,South,188,0.0,0.0,72,0.00,,CLR,0.00,VWS V14.01,2013-07-19 02:43:00,
2013-07-18 21:44:00,83.5,73.5,29.95,South,188,0.0,0.0,72,0.00,,CLR,0.00,VWS V14.01,2013-07-19 02:44:00,
2013-07-18 21:45:00,83.5,73.5,29.95,South,188,0.0,0.0,72,0.00,,CLR,0.00,VWS V14.01,2013-07-19 02:45:00,
2013-07-18 21:47:00,83.5,73.5,29.95,South,188,0.0,0.0,72,0.00,,CLR,0.00,VWS V14.01,2013-07-19 02:47:00,
2013-07-18 21:48:00,83.5,73.5,29.95,South,188,0.0,0.0,72,0.00,,CLR,0.00,VWS V14.01,2013-07-19 02:48:00,
2013-07-18 21:49:00,83.5,73.5,29.95,South,188,0.0,0.0,72,0.00,,CLR,0.00,VWS V14.01,2013-07-19 02:49:00,
2013-07-18 21:50:00,83.5,73.5,29.95,South,188,0.0,0.0,72,0.00,,CLR,0.00,VWS V14.01,2013-07-19 02:50:00,
2013-07-18 21:53:00,83.5,73.9,29.95,South,188,0.0,0.0,73,0.00,,CLR,0.00,VWS V14.01,2013-07-19 02:53:00,
2013-07-18 21:54:00,83.3,73.8,29.95,South,188,0.0,0.0,73,0.00,,CLR,0.00,VWS V14.01,2013-07-19 02:54:00,
2013-07-18 21:55:00,83.3,73.8,29.95,South,188,0.0,0.0,73,0.00,,CLR,0.00,VWS V14.01,2013-07-19 02:55:00,
2013-07-18 21:58:00,83.1,73.6,29.95,South,188,0.0,0.0,73,0.00,,CLR,0.00,VWS V14.01,2013-07-19 02:58:00,
2013-07-18 21:59:00,83.1,74.0,29.95,South,188,0.0,0.0,74,0.00,,CLR,0.00,VWS V14.01,2013-07-19 02:59:00,
2013-07-18 22:00:00,83.1,74.0,29.96,South,188,0.0,0.0,74,0.00,,CLR,0.00,VWS V14.01,2013-07-19 03:00:00,
2013-07-18 22:03:00,82.9,73.8,29.96,South,188,0.0,0.0,74,0.00,,CLR,0.00,VWS V14.01,2013-07-19 03:03:00,
2013-07-18 22:04:00,82.7,73.6,29.96,South,188,0.0,0.0,74,0.00,,CLR,0.00,VWS V14.01,2013-07-19 03:04:00,
2013-07-18 22:05:00,82.7,73.6,29.96,South,188,0.0,0.0,74,0.00,,CLR,0.00,VWS V14.01,2013-07-19 03:05:00,
2013-07-18 22:06:00,82.7,73.6,29.96,South,188,0.0,0.0,74,0.00,,CLR,0.00,VWS V14.01,2013-07-19 03:06:00,
2013-07-18 22:08:00,82.5,73.4,29.96,South,188,0.0,0.0,74,0.00,,CLR,0.00,VWS V14.01,2013-07-19 03:08:00,
2013-07-18 22:09:00,82.5,73.4,29.96,South,182,0.0,0.0,74,0.00,,CLR,0.00,VWS V14.01,2013-07-19 03:09:00,
2013-07-18 22:10:00,82.5,73.4,29.96,South,182,0.0,0.0,74,0.00,,CLR,0.00,VWS V14.01,2013-07-19 03:10:00,
2013-07-18 22:11:00,82.5,73.4,29.96,South,182,0.0,0.0,74,0.00,,CLR,0.00,VWS V14.01,2013-07-19 03:11:00,
2013-07-18 22:13:00,82.3,73.2,29.96,South,181,0.0,0.0,74,0.00,,CLR,0.00,VWS V14.01,2013-07-19 03:13:00,
2013-07-18 22:14:00,82.3,73.2,29.96,South,181,0.0,0.0,74,0.00,,CLR,0.00,VWS V14.01,2013-07-19 03:14:00,
2013-07-18 22:15:00,82.3,73.2,29.95,South,181,0.0,0.0,74,0.00,,CLR,0.00,VWS V14.01,2013-07-19 03:15:00,
2013-07-18 22:16:00,82.3,73.2,29.95,South,187,3.0,4.0,74,0.00,,CLR,0.00,VWS V14.01,2013-07-19 03:16:00,
2013-07-18 22:19:00,82.3,73.2,29.95,South,187,0.0,4.0,74,0.00,,CLR,0.00,VWS V14.01,2013-07-19 03:19:00,
2013-07-18 22:20:00,82.3,73.2,29.95,South,187,0.0,4.0,74,0.00,,CLR,0.00,VWS V14.01,2013-07-19 03:20:00,
2013-07-18 22:21:00,82.3,73.2,29.95,South,187,0.0,4.0,74,0.00,,CLR,0.00,VWS V14.01,2013-07-19 03:21:00,
2013-07-18 22:24:00,82.3,73.2,29.95,South,187,0.0,4.0,74,0.00,,CLR,0.00,VWS V14.01,2013-07-19 03:24:00,
2013-07-18 22:25:00,82.3,73.2,29.95,South,187,0.0,4.0,74,0.00,,CLR,0.00,VWS V14.01,2013-07-19 03:25:00,
2013-07-18 22:26:00,82.1,73.4,29.95,South,187,0.0,4.0,75,0.00,,CLR,0.00,VWS V14.01,2013-07-19 03:26:00,
2013-07-18 22:29:00,82.1,73.4,29.95,South,187,0.0,4.0,75,0.00,,CLR,0.00,VWS V14.01,2013-07-19 03:29:00,
2013-07-18 22:30:00,81.9,73.2,29.95,South,188,0.0,4.0,75,0.00,,CLR,0.00,VWS V14.01,2013-07-19 03:30:00,
2013-07-18 22:31:00,81.9,73.2,29.95,South,188,0.0,0.0,75,0.00,,CLR,0.00,VWS V14.01,2013-07-19 03:31:00,
2013-07-18 22:34:00,81.9,73.2,29.95,SSW,199,0.0,2.0,75,0.00,,CLR,0.00,VWS V14.01,2013-07-19 03:34:00,
2013-07-18 22:35:00,81.9,73.2,29.95,SSW,199,0.0,2.0,75,0.00,,CLR,0.00,VWS V14.01,2013-07-19 03:35:00,
2013-07-18 22:36:00,81.7,73.4,29.95,SSW,198,0.0,2.0,76,0.00,,CLR,0.00,VWS V14.01,2013-07-19 03:36:00,
2013-07-18 22:39:00,81.7,73.4,29.95,South,182,0.0,2.0,76,0.00,,CLR,0.00,VWS V14.01,2013-07-19 03:39:00,
2013-07-18 22:40:00,81.7,73.4,29.95,South,180,0.0,2.0,76,0.00,,CLR,0.00,VWS V14.01,2013-07-19 03:40:00,
2013-07-18 22:41:00,81.7,73.4,29.95,South,181,0.0,2.0,76,0.00,,CLR,0.00,VWS V14.01,2013-07-19 03:41:00,
2013-07-18 22:44:00,81.5,73.2,29.95,SSW,196,0.0,5.0,76,0.00,,CLR,0.00,VWS V14.01,2013-07-19 03:44:00,
2013-07-18 22:45:00,81.5,73.6,29.95,SSW,197,1.0,5.0,77,0.00,,CLR,0.00,VWS V14.01,2013-07-19 03:45:00,
2013-07-18 22:46:00,81.5,73.6,29.95,SSW,197,1.0,5.0,77,0.00,,CLR,0.00,VWS V14.01,2013-07-19 03:46:00,
2013-07-18 22:49:00,81.3,73.4,29.95,SSW,203,0.0,5.0,77,0.00,,CLR,0.00,VWS V14.01,2013-07-19 03:49:00,
2013-07-18 22:50:00,81.3,73.4,29.95,SSW,203,0.0,5.0,77,0.00,,CLR,0.00,VWS V14.01,2013-07-19 03:50:00,
2013-07-18 22:51:00,81.3,73.4,29.95,South,182,2.0,5.0,77,0.00,,CLR,0.00,VWS V14.01,2013-07-19 03:51:00,
2013-07-18 22:52:00,81.3,73.4,29.95,South,182,0.0,5.0,77,0.00,,CLR,0.00,VWS V14.01,2013-07-19 03:52:00,
2013-07-18 22:54:00,81.1,73.2,29.95,South,182,0.0,5.0,77,0.00,,CLR,0.00,VWS V14.01,2013-07-19 03:54:00,
2013-07-18 22:55:00,81.1,73.2,29.95,South,182,0.0,5.0,77,0.00,,CLR,0.00,VWS V14.01,2013-07-19 03:55:00,
2013-07-18 22:56:00,81.1,73.6,29.95,South,182,0.0,5.0,78,0.00,,CLR,0.00,VWS V14.01,2013-07-19 03:56:00,
2013-07-18 22:57:00,81.1,73.6,29.95,South,182,0.0,5.0,78,0.00,,CLR,0.00,VWS V14.01,2013-07-19 03:57:00,
2013-07-18 22:59:00,81.0,73.5,29.95,South,182,0.0,5.0,78,0.00,,CLR,0.00,VWS V14.01,2013-07-19 03:59:00,
2013-07-18 23:00:00,81.0,73.5,29.95,South,182,0.0,5.0,78,0.00,,CLR,0.00,VWS V14.01,2013-07-19 04:00:00,
2013-07-18 23:01:00,81.0,73.5,29.95,South,182,0.0,5.0,78,0.00,,CLR,0.00,VWS V14.01,2013-07-19 04:01:00,
2013-07-18 23:06:00,80.8,73.3,29.95,South,186,0.0,2.0,78,0.00,,CLR,0.00,VWS V14.01,2013-07-19 04:06:00,
2013-07-18 23:11:00,80.6,73.5,29.95,SSW,192,0.0,4.0,79,0.00,,CLR,0.00,VWS V14.01,2013-07-19 04:11:00,
2013-07-18 23:16:00,80.6,73.5,29.95,SSW,192,0.0,4.0,79,0.00,,CLR,0.00,VWS V14.01,2013-07-19 04:16:00,
2013-07-18 23:17:00,80.6,73.5,29.95,SSW,192,0.0,4.0,79,0.00,,CLR,0.00,VWS V14.01,2013-07-19 04:17:00,
2013-07-18 23:21:00,80.4,73.3,29.95,SSW,192,0.0,4.0,79,0.00,,CLR,0.00,VWS V14.01,2013-07-19 04:21:00,
2013-07-18 23:22:00,80.4,73.3,29.95,SSW,192,0.0,4.0,79,0.00,,CLR,0.00,VWS V14.01,2013-07-19 04:22:00,
2013-07-18 23:26:00,80.2,73.5,29.95,SSW,192,0.0,4.0,80,0.00,,CLR,0.00,VWS V14.01,2013-07-19 04:26:00,
2013-07-18 23:27:00,80.2,73.5,29.95,SSW,192,0.0,4.0,80,0.00,,CLR,0.00,VWS V14.01,2013-07-19 04:27:00,
2013-07-18 23:30:00,80.2,73.5,29.95,SSW,192,0.0,4.0,80,0.00,,,0.00,VWS V14.01,2013-07-19 04:30:00,
2013-07-18 23:31:00,80.2,73.5,29.95,SSW,192,0.0,0.0,80,0.00,,CLR,0.00,VWS V14.01,2013-07-19 04:31:00,
2013-07-18 23:32:00,80.2,73.5,29.95,SSW,192,0.0,0.0,80,0.00,,CLR,0.00,VWS V14.01,2013-07-19 04:32:00,
2013-07-18 23:36:00,80.0,73.3,29.95,SSW,192,0.0,0.0,80,0.00,,CLR,0.00,VWS V14.01,2013-07-19 04:36:00,
2013-07-18 23:37:00,80.0,73.3,29.95,SSW,192,0.0,0.0,80,0.00,,CLR,0.00,VWS V14.01,2013-07-19 04:37:00,
2013-07-18 23:38:00,80.0,73.3,29.95,SSW,192,0.0,0.0,80,0.00,,CLR,0.00,VWS V14.01,2013-07-19 04:38:00,
2013-07-18 23:41:00,79.8,73.4,29.95,SSW,192,0.0,2.0,81,0.00,,CLR,0.00,VWS V14.01,2013-07-19 04:41:00,
2013-07-18 23:42:00,79.8,73.4,29.95,SSW,192,0.0,2.0,81,0.00,,CLR,0.00,VWS V14.01,2013-07-19 04:42:00,
2013-07-18 23:43:00,79.8,73.4,29.95,SSW,192,0.0,2.0,81,0.00,,CLR,0.00,VWS V14.01,2013-07-19 04:43:00,
2013-07-18 23:47:00,79.7,73.4,29.95,SSW,192,0.0,2.0,81,0.00,,CLR,0.00,VWS V14.01,2013-07-19 04:47:00,
2013-07-18 23:48:00,79.7,73.4,29.95,SSW,192,0.0,2.0,81,0.00,,CLR,0.00,VWS V14.01,2013-07-19 04:48:00,
2013-07-18 23:52:00,79.7,73.4,29.95,SSW,192,0.0,2.0,81,0.00,,CLR,0.00,VWS V14.01,2013-07-19 04:52:00,
2013-07-18 23:53:00,79.7,73.4,29.95,SSW,192,0.0,2.0,81,0.00,,CLR,0.00,VWS V14.01,2013-07-19 04:53:00,
2013-07-18 23:57:00,79.5,73.2,29.95,SSW,192,0.0,2.0,81,0.00,,CLR,0.00,VWS V14.01,2013-07-19 04:57:00,
2013-07-18 23:58:00,79.5,73.2,29.95,SSW,192,0.0,2.0,81,0.00,,CLR,0.00,VWS V14.01,2013-07-19 04:58:00,